Observation data for Boys Ranch on 07/13/2020      Previous  Date  Next       Current Mesonet Observations  Soil Data  Daily Summary Page  Observations in Plain Language
KBY1 130500Z 29004KT 32/16 A2991 RMK A01 T03200164  RH  039%=      5-min Rain = 0
KBY1 130501Z 27006KT 32/16 A2991 RMK A01 T03200163  RH  039%=      5-min Rain = 0
KBY1 130502Z 28005KT 32/16 A2992 RMK A01 T03190161  RH  039%=      5-min Rain = 0
KBY1 130503Z 29005KT 32/16 A2992 RMK A01 T03200161  RH  038%=      5-min Rain = 0
KBY1 130504Z 30007KT 32/16 A2992 RMK A01 T03210158  RH  037%=      5-min Rain = 0
KBY1 130505Z 28010G15KT 32/16 A2993 RMK A01 T03230159  RH  037%=      5-min Rain = 0
KBY1 130506Z 29015G20KT 32/16 A2994 RMK A01 T03240160  RH  038%=      5-min Rain = 0
KBY1 130507Z 29013G19KT 32/16 A2994 RMK A01 T03240162  RH  038%=      5-min Rain = 0
KBY1 130508Z 28014G19KT 32/16 A2994 RMK A01 T03230162  RH  038%=      5-min Rain = 0
KBY1 130509Z 28011KT 32/16 A2994 RMK A01 T03230162  RH  038%=      5-min Rain = 0
KBY1 130510Z 28013KT 32/16 A2994 RMK A01 T03230160  RH  038%=      5-min Rain = 0
KBY1 130511Z 29015G21KT 32/16 A2994 RMK A01 T03230156  RH  037%=      5-min Rain = 0
KBY1 130512Z 29020G27KT 32/15 A2994 RMK A01 T03240146  RH  034%=      5-min Rain = 0
KBY1 130513Z 30017G26KT 32/14 A2994 RMK A01 T03230142  RH  033%=      5-min Rain = 0
KBY1 130514Z 31021G28KT 32/14 A2994 RMK A01 T03230142  RH  033%=      5-min Rain = 0
KBY1 130515Z 31018G23KT 32/14 A2995 RMK A01 T03230143  RH  034%=      5-min Rain = 0
KBY1 130516Z 32014G19KT 32/14 A2995 RMK A01 T03240143  RH  034%=      5-min Rain = 0
KBY1 130517Z 31013G18KT 32/14 A2995 RMK A01 T03240144  RH  034%=      5-min Rain = 0
KBY1 130518Z 31016KT 33/14 A2994 RMK A01 T03250143  RH  033%=      5-min Rain = 0
KBY1 130519Z 32016G21KT 33/14 A2994 RMK A01 T03280143  RH  033%=      5-min Rain = 0
KBY1 130520Z 31016KT 33/15 A2995 RMK A01 T03310153  RH  034%=      5-min Rain = 0
KBY1 130521Z 30018G23KT 32/17 A2995 RMK A01 T03230167  RH  039%=      5-min Rain = 0
KBY1 130522Z 31017G22KT 31/17 A2995 RMK A01 T03080171  RH  044%=      5-min Rain = 0
KBY1 130523Z 32016KT 30/17 A2996 RMK A01 T02960174  RH  048%=      5-min Rain = 0.01
KBY1 130524Z 31019G25KT 29/17 A2996 RMK A01 T02880168  RH  048%=      5-min Rain = 0.01
KBY1 130525Z 31015KT 29/16 A2996 RMK A01 T02870163  RH  047%=      5-min Rain = 0
KBY1 130526Z 32015KT 29/16 A2996 RMK A01 T02860164  RH  048%=      5-min Rain = 0
KBY1 130527Z 32013KT 28/16 A2995 RMK A01 T02840162  RH  047%=      5-min Rain = 0
KBY1 130528Z 32012KT 28/16 A2995 RMK A01 T02840161  RH  047%=      5-min Rain = 0
KBY1 130529Z 33010KT 28/16 A2995 RMK A01 T02830164  RH  048%=      5-min Rain = 0
KBY1 130530Z 33013KT 28/16 A2995 RMK A01 T02840155  RH  045%=      5-min Rain = 0
KBY1 130531Z 33010KT 29/15 A2995 RMK A01 T02870153  RH  044%=      5-min Rain = 0
KBY1 130532Z 34011KT 29/16 A2995 RMK A01 T02880155  RH  044%=      5-min Rain = 0
KBY1 130533Z 34014KT 29/15 A2995 RMK A01 T02890148  RH  042%=      5-min Rain = 0
KBY1 130534Z 34012G18KT 29/15 A2995 RMK A01 T02910148  RH  042%=      5-min Rain = 0
KBY1 130535Z 34013KT 29/14 A2995 RMK A01 T02920144  RH  041%=      5-min Rain = 0
KBY1 130536Z 34013KT 29/15 A2995 RMK A01 T02920146  RH  041%=      5-min Rain = 0
KBY1 130537Z 34013KT 29/14 A2996 RMK A01 T02930142  RH  040%=      5-min Rain = 0
KBY1 130538Z 34015KT 30/14 A2995 RMK A01 T02950140  RH  039%=      5-min Rain = 0
KBY1 130539Z 34013KT 30/14 A2996 RMK A01 T02960139  RH  038%=      5-min Rain = 0
KBY1 130540Z 34010KT 30/14 A2996 RMK A01 T02970142  RH  039%=      5-min Rain = 0
KBY1 130541Z 34011KT 30/14 A2996 RMK A01 T02970141  RH  038%=      5-min Rain = 0
KBY1 130542Z 35012KT 30/14 A2996 RMK A01 T02970139  RH  038%=      5-min Rain = 0
KBY1 130543Z 35011G16KT 30/14 A2996 RMK A01 T02980138  RH  038%=      5-min Rain = 0
KBY1 130544Z 34012G18KT 30/14 A2996 RMK A01 T02980138  RH  037%=      5-min Rain = 0
KBY1 130545Z 34017G27KT 30/14 A2996 RMK A01 T02990138  RH  037%=      5-min Rain = 0
KBY1 130546Z 35018G25KT 30/15 A2996 RMK A01 T03000145  RH  039%=      5-min Rain = 0
KBY1 130547Z 35015G20KT 30/15 A2995 RMK A01 T03010148  RH  040%=      5-min Rain = 0
KBY1 130548Z 35019G25KT 30/15 A2995 RMK A01 T03000149  RH  040%=      5-min Rain = 0
KBY1 130549Z 36016KT 30/15 A2995 RMK A01 T03000152  RH  041%=      5-min Rain = 0
KBY1 130550Z 01018G25KT 30/16 A2995 RMK A01 T03000155  RH  041%=      5-min Rain = 0
KBY1 130551Z 00019KT 30/16 A2995 RMK A01 T03000158  RH  042%=      5-min Rain = 0
KBY1 130552Z 00017KT 30/16 A2995 RMK A01 T02990159  RH  043%=      5-min Rain = 0
KBY1 130553Z 01018G24KT 30/16 A2995 RMK A01 T02990160  RH  043%=      5-min Rain = 0
KBY1 130554Z 01019G25KT 30/16 A2995 RMK A01 T02980162  RH  044%=      5-min Rain = 0
KBY1 130555Z 00019KT 30/16 A2995 RMK A01 T02970163  RH  044%=      5-min Rain = 0
KBY1 130556Z 00020G29KT 30/16 A2995 RMK A01 T02960164  RH  045%=      5-min Rain = 0
KBY1 130557Z 00024KT 30/16 A2995 RMK A01 T02950162  RH  045%=      5-min Rain = 0
KBY1 130558Z 01021KT 30/16 A2995 RMK A01 T02950163  RH  045%=      5-min Rain = 0
KBY1 130559Z 01019G25KT 29/16 A2995 RMK A01 T02930163  RH  045%=      5-min Rain = 0
KBY1 130600Z 02016G22KT 29/16 A2995 RMK A01 T02920164  RH  046%=      5-min Rain = 0
KBY1 130601Z 01018G24KT 29/17 A2995 RMK A01 T02910165  RH  046%=      5-min Rain = 0
KBY1 130602Z 02016G22KT 29/17 A2995 RMK A01 T02900165  RH  047%=      5-min Rain = 0
KBY1 130603Z 01017G25KT 29/16 A2994 RMK A01 T02890164  RH  047%=      5-min Rain = 0
KBY1 130604Z 01015KT 29/16 A2994 RMK A01 T02880164  RH  047%=      5-min Rain = 0
KBY1 130605Z 00020G26KT 29/16 A2994 RMK A01 T02880164  RH  047%=      5-min Rain = 0
KBY1 130606Z 35019G25KT 29/16 A2994 RMK A01 T02880164  RH  047%=      5-min Rain = 0
KBY1 130607Z 35016G23KT 29/16 A2994 RMK A01 T02880164  RH  047%=      5-min Rain = 0
KBY1 130608Z 00021G26KT 29/16 A2994 RMK A01 T02870164  RH  047%=      5-min Rain = 0
KBY1 130609Z 00021G27KT 29/17 A2994 RMK A01 T02870165  RH  048%=      5-min Rain = 0
KBY1 130610Z 00019G24KT 29/17 A2994 RMK A01 T02870166  RH  048%=      5-min Rain = 0
KBY1 130611Z 01019G27KT 29/17 A2994 RMK A01 T02860166  RH  048%=      5-min Rain = 0
KBY1 130612Z 01015G21KT 29/17 A2994 RMK A01 T02850167  RH  049%=      5-min Rain = 0
KBY1 130613Z 00015G20KT 28/17 A2994 RMK A01 T02840167  RH  049%=      5-min Rain = 0
KBY1 130614Z 01016KT 28/17 A2994 RMK A01 T02840167  RH  049%=      5-min Rain = 0
KBY1 130615Z 36014G23KT 28/17 A2994 RMK A01 T02830168  RH  050%=      5-min Rain = 0
KBY1 130616Z 35012G18KT 28/17 A2994 RMK A01 T02830167  RH  050%=      5-min Rain = 0
KBY1 130617Z 00015G26KT 28/17 A2994 RMK A01 T02820168  RH  050%=      5-min Rain = 0
KBY1 130618Z 36018G27KT 28/17 A2994 RMK A01 T02820168  RH  050%=      5-min Rain = 0
KBY1 130619Z 01017G22KT 28/17 A2994 RMK A01 T02820167  RH  050%=      5-min Rain = 0
KBY1 130620Z 35014G21KT 28/17 A2995 RMK A01 T02820168  RH  050%=      5-min Rain = 0
KBY1 130621Z 35018G24KT 28/17 A2995 RMK A01 T02820167  RH  050%=      5-min Rain = 0
KBY1 130622Z 35013G18KT 28/17 A2995 RMK A01 T02820166  RH  049%=      5-min Rain = 0
KBY1 130623Z 00019G26KT 28/17 A2995 RMK A01 T02820167  RH  049%=      5-min Rain = 0
KBY1 130624Z 01021KT 28/17 A2995 RMK A01 T02820165  RH  049%=      5-min Rain = 0
KBY1 130625Z 00016G21KT 28/17 A2995 RMK A01 T02830165  RH  049%=      5-min Rain = 0
KBY1 130626Z 36017KT 28/17 A2995 RMK A01 T02830167  RH  050%=      5-min Rain = 0
KBY1 130627Z 00019KT 28/17 A2995 RMK A01 T02820168  RH  050%=      5-min Rain = 0
KBY1 130628Z 01018G23KT 28/17 A2995 RMK A01 T02830167  RH  050%=      5-min Rain = 0
KBY1 130629Z 02018G24KT 28/17 A2995 RMK A01 T02830167  RH  049%=      5-min Rain = 0
KBY1 130630Z 02014G19KT 28/17 A2995 RMK A01 T02830167  RH  050%=      5-min Rain = 0
KBY1 130631Z 00013KT 28/17 A2995 RMK A01 T02820168  RH  050%=      5-min Rain = 0
KBY1 130632Z 00017KT 28/17 A2995 RMK A01 T02820167  RH  050%=      5-min Rain = 0
KBY1 130633Z 01014KT 28/17 A2995 RMK A01 T02820166  RH  049%=      5-min Rain = 0
KBY1 130634Z 01017G23KT 28/17 A2995 RMK A01 T02830166  RH  049%=      5-min Rain = 0
KBY1 130635Z 01014KT 28/17 A2995 RMK A01 T02830166  RH  049%=      5-min Rain = 0
KBY1 130636Z 01013KT 28/17 A2995 RMK A01 T02830165  RH  049%=      5-min Rain = 0
KBY1 130637Z 34008KT 28/17 A2996 RMK A01 T02840168  RH  049%=      5-min Rain = 0
KBY1 130638Z 34008G13KT 28/17 A2997 RMK A01 T02830167  RH  049%=      5-min Rain = 0
KBY1 130639Z 32009KT 28/17 A2997 RMK A01 T02830167  RH  050%=      5-min Rain = 0
KBY1 130640Z 32010KT 28/17 A2997 RMK A01 T02820169  RH  050%=      5-min Rain = 0
KBY1 130641Z 36009KT 28/17 A2997 RMK A01 T02810169  RH  051%=      5-min Rain = 0
KBY1 130642Z 34008KT 28/17 A2996 RMK A01 T02800168  RH  050%=      5-min Rain = 0
KBY1 130643Z 34006KT 28/17 A2996 RMK A01 T02800168  RH  051%=      5-min Rain = 0
KBY1 130644Z 34007KT 28/17 A2997 RMK A01 T02800169  RH  051%=      5-min Rain = 0
KBY1 130645Z 34006KT 28/17 A2996 RMK A01 T02800169  RH  051%=      5-min Rain = 0
KBY1 130646Z 33006KT 28/17 A2996 RMK A01 T02800169  RH  051%=      5-min Rain = 0
KBY1 130647Z 30007KT 28/17 A2996 RMK A01 T02800170  RH  051%=      5-min Rain = 0
KBY1 130648Z 32009KT 28/17 A2996 RMK A01 T02800170  RH  051%=      5-min Rain = 0
KBY1 130649Z 32008KT 28/17 A2996 RMK A01 T02800170  RH  051%=      5-min Rain = 0
KBY1 130650Z 33007KT 28/17 A2996 RMK A01 T02790172  RH  052%=      5-min Rain = 0
KBY1 130651Z 35007KT 28/17 A2996 RMK A01 T02790172  RH  052%=      5-min Rain = 0
KBY1 130652Z 35006KT 28/17 A2995 RMK A01 T02780172  RH  052%=      5-min Rain = 0
KBY1 130653Z 35007KT 28/17 A2995 RMK A01 T02780170  RH  052%=      5-min Rain = 0
KBY1 130654Z 35007KT 28/17 A2995 RMK A01 T02780170  RH  052%=      5-min Rain = 0
KBY1 130655Z 36006KT 28/17 A2994 RMK A01 T02780171  RH  052%=      5-min Rain = 0
KBY1 130656Z 01006KT 28/17 A2994 RMK A01 T02780171  RH  052%=      5-min Rain = 0
KBY1 130657Z 01006KT 28/17 A2994 RMK A01 T02770172  RH  053%=      5-min Rain = 0
KBY1 130658Z 01007KT 28/17 A2994 RMK A01 T02770170  RH  052%=      5-min Rain = 0
KBY1 130659Z 36006KT 28/17 A2994 RMK A01 T02770169  RH  052%=      5-min Rain = 0
KBY1 130700Z 35006KT 28/17 A2994 RMK A01 T02770167  RH  051%=      5-min Rain = 0
KBY1 130701Z 35007KT 28/17 A2994 RMK A01 T02780166  RH  051%=      5-min Rain = 0
KBY1 130702Z 36006KT 28/17 A2994 RMK A01 T02780167  RH  051%=      5-min Rain = 0
KBY1 130703Z 35006KT 28/17 A2994 RMK A01 T02780167  RH  051%=      5-min Rain = 0
KBY1 130704Z 00005KT 28/17 A2993 RMK A01 T02780167  RH  051%=      5-min Rain = 0
KBY1 130705Z 00006KT 28/17 A2993 RMK A01 T02780166  RH  051%=      5-min Rain = 0
KBY1 130706Z 36005KT 28/17 A2993 RMK A01 T02780166  RH  050%=      5-min Rain = 0
KBY1 130707Z 01004KT 28/17 A2993 RMK A01 T02780165  RH  050%=      5-min Rain = 0
KBY1 130708Z 02004KT 28/17 A2993 RMK A01 T02780165  RH  050%=      5-min Rain = 0
KBY1 130709Z 02005KT 28/16 A2993 RMK A01 T02780163  RH  050%=      5-min Rain = 0
KBY1 130710Z 02005KT 28/16 A2992 RMK A01 T02780158  RH  048%=      5-min Rain = 0
KBY1 130711Z 06004KT 28/16 A2992 RMK A01 T02800162  RH  049%=      5-min Rain = 0
KBY1 130712Z 05007KT 28/17 A2992 RMK A01 T02800165  RH  050%=      5-min Rain = 0
KBY1 130713Z 06008KT 28/17 A2991 RMK A01 T02790167  RH  050%=      5-min Rain = 0
KBY1 130714Z 07008KT 28/17 A2991 RMK A01 T02780168  RH  051%=      5-min Rain = 0
KBY1 130715Z 06007KT 28/17 A2991 RMK A01 T02760167  RH  052%=      5-min Rain = 0
KBY1 130716Z 05007KT 28/16 A2991 RMK A01 T02750164  RH  051%=      5-min Rain = 0
KBY1 130717Z 04006KT 28/16 A2992 RMK A01 T02750161  RH  050%=      5-min Rain = 0
KBY1 130718Z 03008KT 28/16 A2992 RMK A01 T02760156  RH  048%=      5-min Rain = 0
KBY1 130719Z 03008KT 28/15 A2992 RMK A01 T02790152  RH  046%=      5-min Rain = 0
KBY1 130720Z 03007KT 28/16 A2992 RMK A01 T02800155  RH  046%=      5-min Rain = 0
KBY1 130721Z 02007KT 28/15 A2992 RMK A01 T02800154  RH  046%=      5-min Rain = 0
KBY1 130722Z 03008KT 28/15 A2992 RMK A01 T02800152  RH  046%=      5-min Rain = 0
KBY1 130723Z 03007KT 28/15 A2992 RMK A01 T02810151  RH  045%=      5-min Rain = 0
KBY1 130724Z 03006KT 28/15 A2992 RMK A01 T02820150  RH  045%=      5-min Rain = 0
KBY1 130725Z 04006KT 28/15 A2992 RMK A01 T02830151  RH  045%=      5-min Rain = 0
KBY1 130726Z 04006KT 28/15 A2992 RMK A01 T02830151  RH  044%=      5-min Rain = 0
KBY1 130727Z 05006KT 28/15 A2992 RMK A01 T02830154  RH  045%=      5-min Rain = 0
KBY1 130728Z 04010KT 28/16 A2992 RMK A01 T02830155  RH  046%=      5-min Rain = 0
KBY1 130729Z 04009KT 28/16 A2992 RMK A01 T02830158  RH  047%=      5-min Rain = 0
KBY1 130730Z 05004KT 28/16 A2992 RMK A01 T02830160  RH  047%=      5-min Rain = 0
KBY1 130731Z 05004KT 28/16 A2992 RMK A01 T02820160  RH  048%=      5-min Rain = 0
KBY1 130732Z 07004KT 28/16 A2992 RMK A01 T02820160  RH  048%=      5-min Rain = 0
KBY1 130733Z 09005KT 28/16 A2992 RMK A01 T02810160  RH  048%=      5-min Rain = 0
KBY1 130734Z 07002KT 28/16 A2992 RMK A01 T02810160  RH  048%=      5-min Rain = 0
KBY1 130735Z 06003KT 28/16 A2993 RMK A01 T02810160  RH  048%=      5-min Rain = 0
KBY1 130736Z 04002KT 28/16 A2993 RMK A01 T02810161  RH  048%=      5-min Rain = 0
KBY1 130737Z 03002KT 28/16 A2993 RMK A01 T02810164  RH  049%=      5-min Rain = 0
KBY1 130738Z 02001KT 28/16 A2993 RMK A01 T02810162  RH  048%=      5-min Rain = 0
KBY1 130739Z 00003KT 28/16 A2994 RMK A01 T02810163  RH  049%=      5-min Rain = 0
KBY1 130740Z 33004KT 28/17 A2994 RMK A01 T02810165  RH  049%=      5-min Rain = 0
KBY1 130741Z 35005KT 28/17 A2995 RMK A01 T02800165  RH  050%=      5-min Rain = 0
KBY1 130742Z 00005KT 28/17 A2995 RMK A01 T02800166  RH  050%=      5-min Rain = 0
KBY1 130743Z 00009KT 28/17 A2995 RMK A01 T02790165  RH  050%=      5-min Rain = 0
KBY1 130744Z 00008KT 28/17 A2995 RMK A01 T02800165  RH  050%=      5-min Rain = 0
KBY1 130745Z 00009KT 28/17 A2995 RMK A01 T02810166  RH  049%=      5-min Rain = 0
KBY1 130746Z 02007KT 28/17 A2995 RMK A01 T02820167  RH  050%=      5-min Rain = 0
KBY1 130747Z 03007KT 28/17 A2995 RMK A01 T02810167  RH  050%=      5-min Rain = 0
KBY1 130748Z 03009KT 28/17 A2995 RMK A01 T02810166  RH  050%=      5-min Rain = 0
KBY1 130749Z 05006KT 28/17 A2995 RMK A01 T02820167  RH  050%=      5-min Rain = 0
KBY1 130750Z 05004KT 28/17 A2995 RMK A01 T02820169  RH  050%=      5-min Rain = 0
KBY1 130751Z 04002KT 28/17 A2995 RMK A01 T02810170  RH  051%=      5-min Rain = 0
KBY1 130752Z 03002KT 28/17 A2996 RMK A01 T02810169  RH  051%=      5-min Rain = 0
KBY1 130753Z 11001KT 28/17 A2995 RMK A01 T02810168  RH  050%=      5-min Rain = 0
KBY1 130754Z 10004KT 28/17 A2995 RMK A01 T02810169  RH  051%=      5-min Rain = 0
KBY1 130755Z 09006KT 28/17 A2995 RMK A01 T02800168  RH  051%=      5-min Rain = 0
KBY1 130756Z 10005KT 28/17 A2995 RMK A01 T02800168  RH  051%=      5-min Rain = 0
KBY1 130757Z 08008G13KT 28/17 A2995 RMK A01 T02800169  RH  051%=      5-min Rain = 0
KBY1 130758Z 09006KT 28/17 A2995 RMK A01 T02800170  RH  051%=      5-min Rain = 0
KBY1 130759Z 09008KT 28/17 A2995 RMK A01 T02800172  RH  052%=      5-min Rain = 0
KBY1 130800Z 09009KT 28/17 A2995 RMK A01 T02790172  RH  052%=      5-min Rain = 0
KBY1 130801Z 10012KT 28/17 A2995 RMK A01 T02790171  RH  052%=      5-min Rain = 0
KBY1 130802Z 12011KT 28/17 A2995 RMK A01 T02800169  RH  051%=      5-min Rain = 0
KBY1 130803Z 12012KT 28/17 A2995 RMK A01 T02800169  RH  051%=      5-min Rain = 0
KBY1 130804Z 12012KT 28/17 A2994 RMK A01 T02790171  RH  052%=      5-min Rain = 0
KBY1 130805Z 11014KT 28/18 A2994 RMK A01 T02780176  RH  054%=      5-min Rain = 0
KBY1 130806Z 10012KT 28/18 A2995 RMK A01 T02760182  RH  057%=      5-min Rain = 0
KBY1 130807Z 11009KT 27/18 A2995 RMK A01 T02740183  RH  058%=      5-min Rain = 0
KBY1 130808Z 09007KT 27/18 A2995 RMK A01 T02730182  RH  057%=      5-min Rain = 0
KBY1 130809Z 09007KT 27/18 A2995 RMK A01 T02730182  RH  057%=      5-min Rain = 0
KBY1 130810Z 11005KT 27/18 A2995 RMK A01 T02730182  RH  058%=      5-min Rain = 0
KBY1 130811Z 12007KT 27/18 A2995 RMK A01 T02730178  RH  056%=      5-min Rain = 0
KBY1 130812Z 12009KT 27/17 A2995 RMK A01 T02730172  RH  054%=      5-min Rain = 0
KBY1 130813Z 12008KT 27/17 A2995 RMK A01 T02740171  RH  053%=      5-min Rain = 0
KBY1 130814Z 12008KT 28/17 A2994 RMK A01 T02750171  RH  053%=      5-min Rain = 0
KBY1 130815Z 11007KT 28/17 A2994 RMK A01 T02750172  RH  053%=      5-min Rain = 0
KBY1 130816Z 11006KT 28/17 A2994 RMK A01 T02750173  RH  054%=      5-min Rain = 0
KBY1 130817Z 11006KT 28/17 A2993 RMK A01 T02750173  RH  054%=      5-min Rain = 0
KBY1 130818Z 11008KT 27/17 A2993 RMK A01 T02740173  RH  054%=      5-min Rain = 0
KBY1 130819Z 11008KT 27/17 A2993 RMK A01 T02730174  RH  055%=      5-min Rain = 0
KBY1 130820Z 11009KT 27/18 A2992 RMK A01 T02730176  RH  055%=      5-min Rain = 0
KBY1 130821Z 11010KT 27/18 A2992 RMK A01 T02730177  RH  056%=      5-min Rain = 0
KBY1 130822Z 12011KT 27/18 A2992 RMK A01 T02720177  RH  056%=      5-min Rain = 0
KBY1 130823Z 12010KT 27/18 A2991 RMK A01 T02720177  RH  056%=      5-min Rain = 0
KBY1 130824Z 11010KT 27/18 A2991 RMK A01 T02720178  RH  056%=      5-min Rain = 0
KBY1 130825Z 12009KT 27/18 A2991 RMK A01 T02720178  RH  057%=      5-min Rain = 0
KBY1 130826Z 12009KT 27/18 A2991 RMK A01 T02720179  RH  057%=      5-min Rain = 0
KBY1 130827Z 12009KT 27/18 A299 RMK A01 T02720179  RH  057%=      5-min Rain = 0
KBY1 130828Z 12008KT 27/18 A299 RMK A01 T02720179  RH  057%=      5-min Rain = 0
KBY1 130829Z 11008KT 27/18 A299 RMK A01 T02710180  RH  057%=      5-min Rain = 0
KBY1 130830Z 11006KT 27/18 A299 RMK A01 T02710180  RH  057%=      5-min Rain = 0
KBY1 130831Z 11004KT 27/18 A299 RMK A01 T02710180  RH  058%=      5-min Rain = 0
KBY1 130832Z 12004KT 27/18 A299 RMK A01 T02710180  RH  057%=      5-min Rain = 0
KBY1 130833Z 13004KT 27/18 A2991 RMK A01 T02710181  RH  058%=      5-min Rain = 0
KBY1 130834Z 12004KT 27/18 A2991 RMK A01 T02700181  RH  058%=      5-min Rain = 0
KBY1 130835Z 14006KT 27/18 A2991 RMK A01 T02700181  RH  058%=      5-min Rain = 0
KBY1 130836Z 14005KT 27/18 A2991 RMK A01 T02700180  RH  058%=      5-min Rain = 0
KBY1 130837Z 15005KT 27/18 A2991 RMK A01 T02700179  RH  058%=      5-min Rain = 0
KBY1 130838Z 14004KT 27/18 A2991 RMK A01 T02700180  RH  058%=      5-min Rain = 0
KBY1 130839Z 13005KT 27/18 A2991 RMK A01 T02700180  RH  058%=      5-min Rain = 0
KBY1 130840Z 13004KT 27/18 A2991 RMK A01 T02710180  RH  058%=      5-min Rain = 0
KBY1 130841Z 13006KT 27/18 A2991 RMK A01 T02700180  RH  058%=      5-min Rain = 0
KBY1 130842Z 13005KT 27/18 A2991 RMK A01 T02700179  RH  057%=      5-min Rain = 0
KBY1 130843Z 14003KT 27/18 A2991 RMK A01 T02710179  RH  057%=      5-min Rain = 0
KBY1 130844Z 13002KT 27/18 A2991 RMK A01 T02710179  RH  057%=      5-min Rain = 0
KBY1 130845Z 14003KT 27/18 A2991 RMK A01 T02710179  RH  057%=      5-min Rain = 0
KBY1 130846Z 13002KT 27/18 A2991 RMK A01 T02710178  RH  057%=      5-min Rain = 0
KBY1 130847Z 11002KT 27/18 A2991 RMK A01 T02710178  RH  057%=      5-min Rain = 0
KBY1 130848Z 10001KT 27/18 A2991 RMK A01 T02710178  RH  057%=      5-min Rain = 0
KBY1 130849Z 14002KT 27/18 A2991 RMK A01 T02710179  RH  057%=      5-min Rain = 0
KBY1 130850Z 15003KT 27/18 A2991 RMK A01 T02710178  RH  057%=      5-min Rain = 0
KBY1 130851Z 15002KT 27/18 A2991 RMK A01 T02710175  RH  056%=      5-min Rain = 0
KBY1 130852Z 13001KT 27/18 A2991 RMK A01 T02710177  RH  056%=      5-min Rain = 0
KBY1 130853Z 11002KT 27/18 A2991 RMK A01 T02720178  RH  057%=      5-min Rain = 0
KBY1 130854Z 10001KT 27/18 A299 RMK A01 T02710178  RH  057%=      5-min Rain = 0
KBY1 130855Z 10001KT 27/18 A299 RMK A01 T02710180  RH  057%=      5-min Rain = 0
KBY1 130856Z 11001KT 27/18 A299 RMK A01 T02710181  RH  058%=      5-min Rain = 0
KBY1 130857Z 10002KT 27/18 A299 RMK A01 T02700180  RH  058%=      5-min Rain = 0
KBY1 130858Z 10002KT 27/18 A299 RMK A01 T02690180  RH  058%=      5-min Rain = 0
KBY1 130859Z 10003KT 27/18 A299 RMK A01 T02690179  RH  058%=      5-min Rain = 0
KBY1 130900Z 09003KT 27/18 A299 RMK A01 T02680182  RH  059%=      5-min Rain = 0
KBY1 130901Z 09003KT 27/18 A299 RMK A01 T02680182  RH  060%=      5-min Rain = 0
KBY1 130902Z 10004KT 27/18 A299 RMK A01 T02660181  RH  059%=      5-min Rain = 0
KBY1 130903Z 10003KT 27/18 A299 RMK A01 T02660180  RH  059%=      5-min Rain = 0
KBY1 130904Z 10003KT 27/18 A299 RMK A01 T02660180  RH  059%=      5-min Rain = 0
KBY1 130905Z 09003KT 27/18 A299 RMK A01 T02660181  RH  060%=      5-min Rain = 0
KBY1 130906Z 07004KT 27/18 A299 RMK A01 T02650184  RH  061%=      5-min Rain = 0
KBY1 130907Z 05004KT 27/19 A299 RMK A01 T02650185  RH  061%=      5-min Rain = 0
KBY1 130908Z 05004KT 27/19 A299 RMK A01 T02650185  RH  062%=      5-min Rain = 0
KBY1 130909Z 04005KT 26/18 A2991 RMK A01 T02640181  RH  060%=      5-min Rain = 0
KBY1 130910Z 03006KT 27/18 A2991 RMK A01 T02650179  RH  059%=      5-min Rain = 0
KBY1 130911Z 02006KT 27/18 A2991 RMK A01 T02660179  RH  059%=      5-min Rain = 0
KBY1 130912Z 03007KT 27/18 A2991 RMK A01 T02660180  RH  059%=      5-min Rain = 0
KBY1 130913Z 02007KT 27/18 A2991 RMK A01 T02660179  RH  059%=      5-min Rain = 0
KBY1 130914Z 02006KT 27/18 A2991 RMK A01 T02660179  RH  059%=      5-min Rain = 0
KBY1 130915Z 02005KT 27/18 A2991 RMK A01 T02670179  RH  059%=      5-min Rain = 0
KBY1 130916Z 02004KT 27/18 A2991 RMK A01 T02670180  RH  059%=      5-min Rain = 0
KBY1 130917Z 03006KT 27/18 A2991 RMK A01 T02670182  RH  060%=      5-min Rain = 0
KBY1 130918Z 03004KT 27/18 A2991 RMK A01 T02660183  RH  060%=      5-min Rain = 0
KBY1 130919Z 03003KT 27/18 A2991 RMK A01 T02660183  RH  060%=      5-min Rain = 0
KBY1 130920Z 02002KT 27/18 A2991 RMK A01 T02660183  RH  060%=      5-min Rain = 0
KBY1 130921Z 01002KT 27/18 A2991 RMK A01 T02660184  RH  061%=      5-min Rain = 0
KBY1 130922Z 02001KT 27/18 A2991 RMK A01 T02660184  RH  061%=      5-min Rain = 0
KBY1 130923Z 02001KT 27/18 A2991 RMK A01 T02650184  RH  061%=      5-min Rain = 0
KBY1 130924Z 02002KT 27/18 A299 RMK A01 T02650184  RH  061%=      5-min Rain = 0
KBY1 130925Z 04002KT 27/18 A299 RMK A01 T02650184  RH  061%=      5-min Rain = 0
KBY1 130926Z 04003KT 27/18 A299 RMK A01 T02650184  RH  061%=      5-min Rain = 0
KBY1 130927Z 04005KT 26/19 A299 RMK A01 T02640185  RH  062%=      5-min Rain = 0
KBY1 130928Z 04007KT 26/19 A2991 RMK A01 T02640186  RH  062%=      5-min Rain = 0
KBY1 130929Z 03009KT 26/19 A2991 RMK A01 T02640185  RH  062%=      5-min Rain = 0
KBY1 130930Z 03009KT 26/19 A2991 RMK A01 T02630185  RH  062%=      5-min Rain = 0
KBY1 130931Z 03009KT 26/19 A2991 RMK A01 T02630187  RH  063%=      5-min Rain = 0
KBY1 130932Z 04009KT 26/19 A2991 RMK A01 T02630188  RH  063%=      5-min Rain = 0
KBY1 130933Z 03010KT 26/19 A2991 RMK A01 T02620189  RH  064%=      5-min Rain = 0
KBY1 130934Z 03009KT 26/19 A2991 RMK A01 T02620189  RH  064%=      5-min Rain = 0
KBY1 130935Z 03011KT 26/19 A2992 RMK A01 T02620189  RH  064%=      5-min Rain = 0
KBY1 130936Z 03009KT 26/19 A2992 RMK A01 T02620188  RH  064%=      5-min Rain = 0
KBY1 130937Z 03009KT 26/19 A2992 RMK A01 T02630188  RH  063%=      5-min Rain = 0
KBY1 130938Z 03008KT 26/19 A2992 RMK A01 T02630186  RH  062%=      5-min Rain = 0
KBY1 130939Z 03008KT 26/19 A2992 RMK A01 T02640186  RH  062%=      5-min Rain = 0
KBY1 130940Z 02007KT 27/19 A2992 RMK A01 T02650187  RH  062%=      5-min Rain = 0
KBY1 130941Z 03009KT 27/19 A2992 RMK A01 T02650188  RH  063%=      5-min Rain = 0
KBY1 130942Z 04008KT 26/19 A2992 RMK A01 T02640192  RH  064%=      5-min Rain = 0
KBY1 130943Z 04008KT 26/19 A2991 RMK A01 T02640193  RH  065%=      5-min Rain = 0
KBY1 130944Z 04008KT 26/19 A2991 RMK A01 T02630194  RH  066%=      5-min Rain = 0
KBY1 130945Z 04007KT 26/19 A2991 RMK A01 T02620194  RH  066%=      5-min Rain = 0
KBY1 130946Z 05006KT 26/20 A2991 RMK A01 T02620195  RH  067%=      5-min Rain = 0
KBY1 130947Z 05007KT 26/20 A2991 RMK A01 T02610196  RH  067%=      5-min Rain = 0
KBY1 130948Z 06007KT 26/20 A2991 RMK A01 T02610196  RH  067%=      5-min Rain = 0
KBY1 130949Z 05006KT 26/20 A2991 RMK A01 T02600196  RH  068%=      5-min Rain = 0
KBY1 130950Z 05006KT 26/20 A2991 RMK A01 T02600197  RH  068%=      5-min Rain = 0
KBY1 130951Z 04006KT 26/20 A2991 RMK A01 T02600197  RH  068%=      5-min Rain = 0
KBY1 130952Z 04007KT 26/20 A2991 RMK A01 T02600197  RH  068%=      5-min Rain = 0
KBY1 130953Z 04008KT 26/20 A2991 RMK A01 T02600196  RH  068%=      5-min Rain = 0
KBY1 130954Z 04008KT 26/20 A2991 RMK A01 T02600195  RH  067%=      5-min Rain = 0
KBY1 130955Z 04009KT 26/20 A2991 RMK A01 T02600195  RH  067%=      5-min Rain = 0
KBY1 130956Z 04008KT 26/20 A2991 RMK A01 T02610195  RH  067%=      5-min Rain = 0
KBY1 130957Z 05009KT 26/20 A2991 RMK A01 T02610196  RH  068%=      5-min Rain = 0
KBY1 130958Z 06007KT 26/20 A2991 RMK A01 T02600197  RH  068%=      5-min Rain = 0
KBY1 130959Z 06008KT 26/20 A2991 RMK A01 T02600197  RH  068%=      5-min Rain = 0
KBY1 131000Z 06009KT 26/20 A2991 RMK A01 T02600198  RH  069%=      5-min Rain = 0
KBY1 131001Z 06008KT 26/20 A2991 RMK A01 T02590198  RH  069%=      5-min Rain = 0
KBY1 131002Z 05007KT 26/20 A2991 RMK A01 T02590197  RH  069%=      5-min Rain = 0
KBY1 131003Z 05007KT 26/20 A2991 RMK A01 T02590197  RH  069%=      5-min Rain = 0
KBY1 131004Z 04007KT 26/20 A299 RMK A01 T02590197  RH  069%=      5-min Rain = 0
KBY1 131005Z 03007KT 26/20 A299 RMK A01 T02590196  RH  068%=      5-min Rain = 0
KBY1 131006Z 04008KT 26/20 A2991 RMK A01 T02590196  RH  068%=      5-min Rain = 0
KBY1 131007Z 03007KT 26/20 A2991 RMK A01 T02590197  RH  069%=      5-min Rain = 0
KBY1 131008Z 04007KT 26/20 A2991 RMK A01 T02590197  RH  069%=      5-min Rain = 0
KBY1 131009Z 03006KT 26/20 A2991 RMK A01 T02580197  RH  069%=      5-min Rain = 0
KBY1 131010Z 04008KT 26/20 A2991 RMK A01 T02580197  RH  069%=      5-min Rain = 0
KBY1 131011Z 04007KT 26/20 A2991 RMK A01 T02580197  RH  069%=      5-min Rain = 0
KBY1 131012Z 04007KT 26/20 A2991 RMK A01 T02580197  RH  069%=      5-min Rain = 0
KBY1 131013Z 04005KT 26/20 A2991 RMK A01 T02580197  RH  069%=      5-min Rain = 0
KBY1 131014Z 05006KT 26/20 A2991 RMK A01 T02580197  RH  069%=      5-min Rain = 0
KBY1 131015Z 05006KT 26/20 A2991 RMK A01 T02580197  RH  069%=      5-min Rain = 0
KBY1 131016Z 04005KT 26/20 A2991 RMK A01 T02580197  RH  069%=      5-min Rain = 0
KBY1 131017Z 05006KT 26/20 A2991 RMK A01 T02570197  RH  069%=      5-min Rain = 0
KBY1 131018Z 05007KT 26/20 A2991 RMK A01 T02570197  RH  069%=      5-min Rain = 0
KBY1 131019Z 05006KT 26/20 A2991 RMK A01 T02570197  RH  069%=      5-min Rain = 0
KBY1 131020Z 05007KT 26/20 A2991 RMK A01 T02570197  RH  070%=      5-min Rain = 0
KBY1 131021Z 06006KT 26/20 A2991 RMK A01 T02570197  RH  070%=      5-min Rain = 0
KBY1 131022Z 06007KT 26/20 A2991 RMK A01 T02560198  RH  070%=      5-min Rain = 0
KBY1 131023Z 06007KT 26/20 A2991 RMK A01 T02560198  RH  070%=      5-min Rain = 0
KBY1 131024Z 06007KT 26/20 A2991 RMK A01 T02560198  RH  070%=      5-min Rain = 0
KBY1 131025Z 06006KT 26/20 A2991 RMK A01 T02560197  RH  070%=      5-min Rain = 0
KBY1 131026Z 06005KT 26/20 A2991 RMK A01 T02550198  RH  070%=      5-min Rain = 0
KBY1 131027Z 06007KT 26/20 A2991 RMK A01 T02550198  RH  071%=      5-min Rain = 0
KBY1 131028Z 07006KT 26/20 A2992 RMK A01 T02550197  RH  070%=      5-min Rain = 0
KBY1 131029Z 06007KT 26/20 A2992 RMK A01 T02550197  RH  070%=      5-min Rain = 0
KBY1 131030Z 06007KT 26/20 A2992 RMK A01 T02550197  RH  070%=      5-min Rain = 0
KBY1 131031Z 05007KT 26/20 A2992 RMK A01 T02550197  RH  070%=      5-min Rain = 0
KBY1 131032Z 06007KT 26/20 A2992 RMK A01 T02550198  RH  070%=      5-min Rain = 0
KBY1 131033Z 06006KT 26/20 A2992 RMK A01 T02550197  RH  070%=      5-min Rain = 0
KBY1 131034Z 06005KT 26/20 A2992 RMK A01 T02550197  RH  071%=      5-min Rain = 0
KBY1 131035Z 06006KT 26/20 A2992 RMK A01 T02550198  RH  071%=      5-min Rain = 0
KBY1 131036Z 05007KT 25/20 A2992 RMK A01 T02540198  RH  071%=      5-min Rain = 0
KBY1 131037Z 05005KT 25/20 A2992 RMK A01 T02540197  RH  071%=      5-min Rain = 0
KBY1 131038Z 05005KT 25/20 A2992 RMK A01 T02540198  RH  071%=      5-min Rain = 0
KBY1 131039Z 05006KT 25/20 A2992 RMK A01 T02540198  RH  071%=      5-min Rain = 0
KBY1 131040Z 06007KT 25/20 A2992 RMK A01 T02530197  RH  071%=      5-min Rain = 0
KBY1 131041Z 05007KT 25/20 A2992 RMK A01 T02530197  RH  071%=      5-min Rain = 0
KBY1 131042Z 05007KT 25/20 A2992 RMK A01 T02530197  RH  071%=      5-min Rain = 0
KBY1 131043Z 05007KT 25/20 A2992 RMK A01 T02530197  RH  071%=      5-min Rain = 0
KBY1 131044Z 05005KT 25/20 A2992 RMK A01 T02530198  RH  071%=      5-min Rain = 0
KBY1 131045Z 06005KT 25/20 A2992 RMK A01 T02530197  RH  071%=      5-min Rain = 0
KBY1 131046Z 07005KT 25/20 A2992 RMK A01 T02520198  RH  072%=      5-min Rain = 0
KBY1 131047Z 06006KT 25/20 A2992 RMK A01 T02520198  RH  072%=      5-min Rain = 0
KBY1 131048Z 07005KT 25/20 A2992 RMK A01 T02510198  RH  072%=      5-min Rain = 0
KBY1 131049Z 07004KT 25/20 A2992 RMK A01 T02510198  RH  072%=      5-min Rain = 0
KBY1 131050Z 07004KT 25/20 A2992 RMK A01 T02510198  RH  072%=      5-min Rain = 0
KBY1 131051Z 07004KT 25/20 A2992 RMK A01 T02500198  RH  073%=      5-min Rain = 0
KBY1 131052Z 07005KT 25/20 A2992 RMK A01 T02500197  RH  073%=      5-min Rain = 0
KBY1 131053Z 06004KT 25/20 A2992 RMK A01 T02500197  RH  073%=      5-min Rain = 0
KBY1 131054Z 06004KT 25/20 A2992 RMK A01 T02500198  RH  073%=      5-min Rain = 0
KBY1 131055Z 06003KT 25/20 A2992 RMK A01 T02500198  RH  073%=      5-min Rain = 0
KBY1 131056Z 07002KT 25/20 A2992 RMK A01 T02500198  RH  073%=      5-min Rain = 0
KBY1 131057Z 08002KT 25/20 A2992 RMK A01 T02490198  RH  073%=      5-min Rain = 0
KBY1 131058Z 09001KT 25/20 A2992 RMK A01 T02490198  RH  073%=      5-min Rain = 0
KBY1 131059Z 09002KT 25/20 A2992 RMK A01 T02490198  RH  073%=      5-min Rain = 0
KBY1 131100Z 10003KT 25/20 A2992 RMK A01 T02490198  RH  073%=      5-min Rain = 0
KBY1 131101Z 12003KT 25/20 A2992 RMK A01 T02480198  RH  074%=      5-min Rain = 0
KBY1 131102Z 13003KT 25/20 A2992 RMK A01 T02470198  RH  074%=      5-min Rain = 0
KBY1 131103Z 13003KT 25/20 A2992 RMK A01 T02460198  RH  074%=      5-min Rain = 0
KBY1 131104Z 13003KT 25/20 A2992 RMK A01 T02450197  RH  075%=      5-min Rain = 0
KBY1 131105Z 12003KT 25/20 A2992 RMK A01 T02450197  RH  075%=      5-min Rain = 0
KBY1 131106Z 11004KT 24/20 A2992 RMK A01 T02440197  RH  075%=      5-min Rain = 0
KBY1 131107Z 12004KT 24/20 A2992 RMK A01 T02440198  RH  075%=      5-min Rain = 0
KBY1 131108Z 13003KT 24/20 A2992 RMK A01 T02440198  RH  075%=      5-min Rain = 0
KBY1 131109Z 12004KT 24/20 A2992 RMK A01 T02430198  RH  076%=      5-min Rain = 0
KBY1 131110Z 12004KT 24/20 A2992 RMK A01 T02430198  RH  076%=      5-min Rain = 0
KBY1 131111Z 11003KT 24/20 A2992 RMK A01 T02420198  RH  076%=      5-min Rain = 0
KBY1 131112Z 11002KT 24/20 A2992 RMK A01 T02420198  RH  076%=      5-min Rain = 0
KBY1 131113Z 11002KT 24/20 A2992 RMK A01 T02420198  RH  076%=      5-min Rain = 0
KBY1 131114Z 10002KT 24/20 A2992 RMK A01 T02410197  RH  076%=      5-min Rain = 0
KBY1 131115Z 10002KT 24/20 A2992 RMK A01 T02410197  RH  077%=      5-min Rain = 0
KBY1 131116Z 09002KT 24/20 A2992 RMK A01 T02410197  RH  077%=      5-min Rain = 0
KBY1 131117Z 08001KT 24/20 A2992 RMK A01 T02400197  RH  077%=      5-min Rain = 0
KBY1 131118Z 09002KT 24/20 A2992 RMK A01 T02410198  RH  077%=      5-min Rain = 0
KBY1 131119Z 11001KT 24/20 A2992 RMK A01 T02400199  RH  077%=      5-min Rain = 0
KBY1 131120Z 12001KT 24/20 A2992 RMK A01 T02400198  RH  077%=      5-min Rain = 0
KBY1 131121Z 13001KT 24/20 A2992 RMK A01 T02400199  RH  078%=      5-min Rain = 0
KBY1 131122Z 13002KT 24/20 A2992 RMK A01 T02400198  RH  077%=      5-min Rain = 0
KBY1 131123Z 12002KT 24/20 A2992 RMK A01 T02400199  RH  078%=      5-min Rain = 0
KBY1 131124Z 12002KT 24/20 A2992 RMK A01 T02390198  RH  078%=      5-min Rain = 0
KBY1 131125Z 12002KT 24/20 A2992 RMK A01 T02390198  RH  078%=      5-min Rain = 0
KBY1 131126Z 13002KT 24/20 A2992 RMK A01 T02390198  RH  078%=      5-min Rain = 0
KBY1 131127Z 14003KT 24/20 A2992 RMK A01 T02380197  RH  078%=      5-min Rain = 0
KBY1 131128Z 14002KT 24/20 A2993 RMK A01 T02380197  RH  078%=      5-min Rain = 0
KBY1 131129Z 14002KT 24/20 A2993 RMK A01 T02370197  RH  078%=      5-min Rain = 0
KBY1 131130Z 14002KT 24/20 A2993 RMK A01 T02360197  RH  079%=      5-min Rain = 0
KBY1 131131Z 14002KT 24/20 A2993 RMK A01 T02350197  RH  079%=      5-min Rain = 0
KBY1 131132Z 15002KT 24/20 A2993 RMK A01 T02350197  RH  079%=      5-min Rain = 0
KBY1 131133Z 16002KT 23/20 A2993 RMK A01 T02340197  RH  079%=      5-min Rain = 0
KBY1 131134Z 17001KT 23/20 A2993 RMK A01 T02340196  RH  079%=      5-min Rain = 0
KBY1 131135Z 17001KT 23/20 A2993 RMK A01 T02330196  RH  079%=      5-min Rain = 0
KBY1 131136Z 17000KT 23/20 A2993 RMK A01 T02330197  RH  080%=      5-min Rain = 0
KBY1 131137Z 00000KT 23/20 A2993 RMK A01 T02330196  RH  080%=      5-min Rain = 0
KBY1 131138Z 00000KT 23/20 A2994 RMK A01 T02330196  RH  080%=      5-min Rain = 0
KBY1 131139Z 00000KT 23/20 A2994 RMK A01 T02320196  RH  080%=      5-min Rain = 0
KBY1 131140Z 00000KT 23/20 A2994 RMK A01 T02320196  RH  080%=      5-min Rain = 0
KBY1 131141Z 08000KT 23/20 A2994 RMK A01 T02320196  RH  080%=      5-min Rain = 0
KBY1 131142Z 05001KT 23/20 A2994 RMK A01 T02320196  RH  080%=      5-min Rain = 0
KBY1 131143Z 05001KT 23/20 A2994 RMK A01 T02320196  RH  080%=      5-min Rain = 0
KBY1 131144Z 06002KT 23/20 A2994 RMK A01 T02320196  RH  080%=      5-min Rain = 0
KBY1 131145Z 08003KT 23/20 A2994 RMK A01 T02320196  RH  081%=      5-min Rain = 0
KBY1 131146Z 08003KT 23/20 A2994 RMK A01 T02320197  RH  081%=      5-min Rain = 0
KBY1 131147Z 08003KT 23/20 A2994 RMK A01 T02310198  RH  081%=      5-min Rain = 0
KBY1 131148Z 09003KT 23/20 A2994 RMK A01 T02310198  RH  082%=      5-min Rain = 0
KBY1 131149Z 09003KT 23/20 A2994 RMK A01 T02300198  RH  082%=      5-min Rain = 0
KBY1 131150Z 10004KT 23/20 A2994 RMK A01 T02300198  RH  082%=      5-min Rain = 0
KBY1 131151Z 11004KT 23/20 A2994 RMK A01 T02300198  RH  082%=      5-min Rain = 0
KBY1 131152Z 11003KT 23/20 A2994 RMK A01 T02300198  RH  082%=      5-min Rain = 0
KBY1 131153Z 12003KT 23/20 A2994 RMK A01 T02300198  RH  082%=      5-min Rain = 0
KBY1 131154Z 12003KT 23/20 A2994 RMK A01 T02300198  RH  082%=      5-min Rain = 0
KBY1 131155Z 12003KT 23/20 A2993 RMK A01 T02290198  RH  082%=      5-min Rain = 0
KBY1 131156Z 11002KT 23/20 A2993 RMK A01 T02280197  RH  082%=      5-min Rain = 0
KBY1 131157Z 10002KT 23/20 A2993 RMK A01 T02280197  RH  082%=      5-min Rain = 0
KBY1 131158Z 10002KT 23/20 A2993 RMK A01 T02280197  RH  083%=      5-min Rain = 0
KBY1 131159Z 09002KT 23/20 A2993 RMK A01 T02280197  RH  083%=      5-min Rain = 0
KBY1 131200Z 08003KT 23/20 A2993 RMK A01 T02280197  RH  082%=      5-min Rain = 0
KBY1 131201Z 07003KT 23/20 A2993 RMK A01 T02280197  RH  082%=      5-min Rain = 0
KBY1 131202Z 07003KT 23/20 A2993 RMK A01 T02290198  RH  083%=      5-min Rain = 0
KBY1 131203Z 07003KT 23/20 A2993 RMK A01 T02290199  RH  083%=      5-min Rain = 0
KBY1 131204Z 07004KT 23/20 A2993 RMK A01 T02290199  RH  083%=      5-min Rain = 0
KBY1 131205Z 06004KT 23/20 A2993 RMK A01 T02290199  RH  083%=      5-min Rain = 0
KBY1 131206Z 06003KT 23/20 A2993 RMK A01 T02290199  RH  083%=      5-min Rain = 0
KBY1 131207Z 07003KT 23/20 A2993 RMK A01 T02290200  RH  083%=      5-min Rain = 0
KBY1 131208Z 08003KT 23/20 A2993 RMK A01 T02300200  RH  083%=      5-min Rain = 0
KBY1 131209Z 07004KT 23/20 A2993 RMK A01 T02300199  RH  083%=      5-min Rain = 0
KBY1 131210Z 07004KT 23/20 A2993 RMK A01 T02310199  RH  082%=      5-min Rain = 0
KBY1 131211Z 07003KT 23/20 A2993 RMK A01 T02330199  RH  082%=      5-min Rain = 0
KBY1 131212Z 07003KT 23/20 A2993 RMK A01 T02330200  RH  081%=      5-min Rain = 0
KBY1 131213Z 07003KT 23/20 A2993 RMK A01 T02340200  RH  081%=      5-min Rain = 0
KBY1 131214Z 07003KT 24/20 A2993 RMK A01 T02350201  RH  081%=      5-min Rain = 0
KBY1 131215Z 07003KT 24/20 A2993 RMK A01 T02350200  RH  081%=      5-min Rain = 0
KBY1 131216Z 06003KT 24/20 A2993 RMK A01 T02360201  RH  081%=      5-min Rain = 0
KBY1 131217Z 07003KT 24/20 A2993 RMK A01 T02360201  RH  081%=      5-min Rain = 0
KBY1 131218Z 06003KT 24/20 A2993 RMK A01 T02360201  RH  080%=      5-min Rain = 0
KBY1 131219Z 07003KT 24/20 A2993 RMK A01 T02370200  RH  080%=      5-min Rain = 0
KBY1 131220Z 07003KT 24/20 A2993 RMK A01 T02370201  RH  080%=      5-min Rain = 0
KBY1 131221Z 07003KT 24/20 A2993 RMK A01 T02370200  RH  080%=      5-min Rain = 0
KBY1 131222Z 07003KT 24/20 A2994 RMK A01 T02380200  RH  079%=      5-min Rain = 0
KBY1 131223Z 06003KT 24/20 A2994 RMK A01 T02380200  RH  079%=      5-min Rain = 0
KBY1 131224Z 05003KT 24/20 A2994 RMK A01 T02380200  RH  079%=      5-min Rain = 0
KBY1 131225Z 06004KT 24/20 A2994 RMK A01 T02380200  RH  079%=      5-min Rain = 0
KBY1 131226Z 06003KT 24/20 A2994 RMK A01 T02380200  RH  079%=      5-min Rain = 0
KBY1 131227Z 06003KT 24/20 A2994 RMK A01 T02380200  RH  079%=      5-min Rain = 0
KBY1 131228Z 07004KT 24/20 A2994 RMK A01 T02390201  RH  079%=      5-min Rain = 0
KBY1 131229Z 06004KT 24/20 A2994 RMK A01 T02390201  RH  079%=      5-min Rain = 0
KBY1 131230Z 05004KT 24/20 A2994 RMK A01 T02390201  RH  079%=      5-min Rain = 0
KBY1 131231Z 05004KT 24/20 A2994 RMK A01 T02400201  RH  079%=      5-min Rain = 0
KBY1 131232Z 05003KT 24/20 A2994 RMK A01 T02400202  RH  079%=      5-min Rain = 0
KBY1 131233Z 06003KT 24/20 A2994 RMK A01 T02410202  RH  079%=      5-min Rain = 0
KBY1 131234Z 07003KT 24/20 A2994 RMK A01 T02400202  RH  079%=      5-min Rain = 0
KBY1 131235Z 08003KT 24/20 A2994 RMK A01 T02400202  RH  079%=      5-min Rain = 0
KBY1 131236Z 08004KT 24/20 A2994 RMK A01 T02400202  RH  079%=      5-min Rain = 0
KBY1 131237Z 09004KT 24/20 A2994 RMK A01 T02390202  RH  080%=      5-min Rain = 0
KBY1 131238Z 09003KT 24/20 A2995 RMK A01 T02390202  RH  080%=      5-min Rain = 0
KBY1 131239Z 10003KT 24/20 A2995 RMK A01 T02380202  RH  080%=      5-min Rain = 0
KBY1 131240Z 10003KT 24/20 A2995 RMK A01 T02390203  RH  080%=      5-min Rain = 0
KBY1 131241Z 09003KT 24/20 A2995 RMK A01 T02390203  RH  080%=      5-min Rain = 0
KBY1 131242Z 08003KT 24/20 A2995 RMK A01 T02390203  RH  080%=      5-min Rain = 0
KBY1 131243Z 07004KT 24/20 A2995 RMK A01 T02390202  RH  080%=      5-min Rain = 0
KBY1 131244Z 06004KT 24/20 A2995 RMK A01 T02390202  RH  080%=      5-min Rain = 0
KBY1 131245Z 06005KT 24/20 A2995 RMK A01 T02390203  RH  080%=      5-min Rain = 0
KBY1 131246Z 06004KT 24/20 A2995 RMK A01 T02390203  RH  080%=      5-min Rain = 0
KBY1 131247Z 05005KT 24/20 A2995 RMK A01 T02400203  RH  080%=      5-min Rain = 0
KBY1 131248Z 05005KT 24/20 A2995 RMK A01 T02420203  RH  079%=      5-min Rain = 0
KBY1 131249Z 06005KT 24/20 A2995 RMK A01 T02420203  RH  079%=      5-min Rain = 0
KBY1 131250Z 06004KT 24/20 A2995 RMK A01 T02430204  RH  079%=      5-min Rain = 0
KBY1 131251Z 07004KT 24/20 A2995 RMK A01 T02440204  RH  078%=      5-min Rain = 0
KBY1 131252Z 09003KT 24/20 A2995 RMK A01 T02440204  RH  078%=      5-min Rain = 0
KBY1 131253Z 10003KT 24/20 A2995 RMK A01 T02440204  RH  078%=      5-min Rain = 0
KBY1 131254Z 10004KT 25/21 A2995 RMK A01 T02450205  RH  078%=      5-min Rain = 0
KBY1 131255Z 11005KT 25/20 A2995 RMK A01 T02450204  RH  078%=      5-min Rain = 0
KBY1 131256Z 12005KT 25/20 A2995 RMK A01 T02460204  RH  078%=      5-min Rain = 0
KBY1 131257Z 12005KT 25/21 A2995 RMK A01 T02460205  RH  078%=      5-min Rain = 0
KBY1 131258Z 12005KT 25/21 A2995 RMK A01 T02470205  RH  078%=      5-min Rain = 0
KBY1 131259Z 13005KT 25/21 A2995 RMK A01 T02480205  RH  077%=      5-min Rain = 0
KBY1 131300Z 12005KT 25/21 A2995 RMK A01 T02490206  RH  077%=      5-min Rain = 0
KBY1 131301Z 14005KT 25/21 A2995 RMK A01 T02490205  RH  076%=      5-min Rain = 0
KBY1 131302Z 14005KT 25/20 A2995 RMK A01 T02490204  RH  076%=      5-min Rain = 0
KBY1 131303Z 16004KT 25/21 A2995 RMK A01 T02490205  RH  076%=      5-min Rain = 0
KBY1 131304Z 16004KT 25/21 A2995 RMK A01 T02490205  RH  076%=      5-min Rain = 0
KBY1 131305Z 15004KT 25/21 A2995 RMK A01 T02490205  RH  077%=      5-min Rain = 0
KBY1 131306Z 15004KT 25/21 A2995 RMK A01 T02490205  RH  077%=      5-min Rain = 0
KBY1 131307Z 15005KT 25/20 A2995 RMK A01 T02500204  RH  076%=      5-min Rain = 0
KBY1 131308Z 14003KT 25/20 A2995 RMK A01 T02490204  RH  076%=      5-min Rain = 0
KBY1 131309Z 12002KT 25/20 A2995 RMK A01 T02500204  RH  076%=      5-min Rain = 0
KBY1 131310Z 13002KT 25/20 A2995 RMK A01 T02500204  RH  076%=      5-min Rain = 0
KBY1 131311Z 12002KT 25/20 A2995 RMK A01 T02500204  RH  075%=      5-min Rain = 0
KBY1 131312Z 13002KT 25/20 A2995 RMK A01 T02510203  RH  075%=      5-min Rain = 0
KBY1 131313Z 10002KT 25/20 A2995 RMK A01 T02520204  RH  075%=      5-min Rain = 0
KBY1 131314Z 09003KT 25/20 A2995 RMK A01 T02530203  RH  074%=      5-min Rain = 0
KBY1 131315Z 08004KT 25/20 A2995 RMK A01 T02540204  RH  074%=      5-min Rain = 0
KBY1 131316Z 08004KT 26/21 A2995 RMK A01 T02550206  RH  074%=      5-min Rain = 0
KBY1 131317Z 06004KT 26/21 A2995 RMK A01 T02550206  RH  074%=      5-min Rain = 0
KBY1 131318Z 07004KT 26/21 A2995 RMK A01 T02560205  RH  074%=      5-min Rain = 0
KBY1 131319Z 07003KT 26/21 A2995 RMK A01 T02560208  RH  075%=      5-min Rain = 0
KBY1 131320Z 07003KT 26/21 A2995 RMK A01 T02570207  RH  074%=      5-min Rain = 0
KBY1 131321Z 07005KT 26/21 A2995 RMK A01 T02590207  RH  073%=      5-min Rain = 0
KBY1 131322Z 06006KT 26/21 A2995 RMK A01 T02590206  RH  073%=      5-min Rain = 0
KBY1 131323Z 07005KT 26/21 A2995 RMK A01 T02580205  RH  073%=      5-min Rain = 0
KBY1 131324Z 06005KT 26/21 A2995 RMK A01 T02570205  RH  073%=      5-min Rain = 0
KBY1 131325Z 07004KT 26/20 A2995 RMK A01 T02560204  RH  073%=      5-min Rain = 0
KBY1 131326Z 12002KT 26/20 A2995 RMK A01 T02560203  RH  073%=      5-min Rain = 0
KBY1 131327Z 16001KT 26/20 A2995 RMK A01 T02560203  RH  073%=      5-min Rain = 0
KBY1 131328Z 18002KT 26/20 A2995 RMK A01 T02560203  RH  072%=      5-min Rain = 0
KBY1 131329Z 19002KT 26/20 A2995 RMK A01 T02560204  RH  073%=      5-min Rain = 0
KBY1 131330Z 20001KT 26/20 A2995 RMK A01 T02560203  RH  072%=      5-min Rain = 0
KBY1 131331Z 21002KT 26/20 A2995 RMK A01 T02570203  RH  072%=      5-min Rain = 0
KBY1 131332Z 21001KT 26/20 A2994 RMK A01 T02560202  RH  072%=      5-min Rain = 0
KBY1 131333Z 23000KT 26/20 A2994 RMK A01 T02570202  RH  072%=      5-min Rain = 0
KBY1 131334Z 05001KT 26/20 A2994 RMK A01 T02580204  RH  072%=      5-min Rain = 0
KBY1 131335Z 05002KT 26/20 A2994 RMK A01 T02610204  RH  071%=      5-min Rain = 0
KBY1 131336Z 04001KT 26/20 A2994 RMK A01 T02630204  RH  070%=      5-min Rain = 0
KBY1 131337Z 07001KT 27/20 A2994 RMK A01 T02650203  RH  069%=      5-min Rain = 0
KBY1 131338Z 10001KT 27/20 A2994 RMK A01 T02650203  RH  069%=      5-min Rain = 0
KBY1 131339Z 08002KT 27/20 A2994 RMK A01 T02660203  RH  068%=      5-min Rain = 0
KBY1 131340Z 07003KT 27/21 A2994 RMK A01 T02670205  RH  069%=      5-min Rain = 0
KBY1 131341Z 05003KT 27/20 A2994 RMK A01 T02680203  RH  068%=      5-min Rain = 0
KBY1 131342Z 06003KT 27/20 A2994 RMK A01 T02670203  RH  068%=      5-min Rain = 0
KBY1 131343Z 06003KT 27/20 A2994 RMK A01 T02660204  RH  069%=      5-min Rain = 0
KBY1 131344Z 06004KT 27/20 A2994 RMK A01 T02670204  RH  068%=      5-min Rain = 0
KBY1 131345Z 06005KT 27/20 A2994 RMK A01 T02670204  RH  068%=      5-min Rain = 0
KBY1 131346Z 06004KT 27/20 A2994 RMK A01 T02670203  RH  068%=      5-min Rain = 0
KBY1 131347Z 06003KT 27/20 A2994 RMK A01 T02650202  RH  068%=      5-min Rain = 0
KBY1 131348Z 09003KT 27/20 A2994 RMK A01 T02650203  RH  069%=      5-min Rain = 0
KBY1 131349Z 09004KT 27/20 A2994 RMK A01 T02660202  RH  068%=      5-min Rain = 0
KBY1 131350Z 08004KT 27/20 A2994 RMK A01 T02660203  RH  068%=      5-min Rain = 0
KBY1 131351Z 09004KT 27/20 A2994 RMK A01 T02670202  RH  067%=      5-min Rain = 0
KBY1 131352Z 07003KT 27/20 A2994 RMK A01 T02670203  RH  068%=      5-min Rain = 0
KBY1 131353Z 10004KT 27/20 A2994 RMK A01 T02670202  RH  067%=      5-min Rain = 0
KBY1 131354Z 10003KT 27/20 A2994 RMK A01 T02680202  RH  067%=      5-min Rain = 0
KBY1 131355Z 08003KT 27/20 A2994 RMK A01 T02680202  RH  067%=      5-min Rain = 0
KBY1 131356Z 06002KT 27/20 A2994 RMK A01 T02690202  RH  067%=      5-min Rain = 0
KBY1 131357Z 09002KT 27/20 A2994 RMK A01 T02700202  RH  066%=      5-min Rain = 0
KBY1 131358Z 11003KT 27/20 A2994 RMK A01 T02710200  RH  065%=      5-min Rain = 0
KBY1 131359Z 12003KT 27/20 A2994 RMK A01 T02710201  RH  065%=      5-min Rain = 0
KBY1 131400Z 09002KT 27/20 A2994 RMK A01 T02710201  RH  065%=      5-min Rain = 0
KBY1 131401Z 07003KT 27/20 A2994 RMK A01 T02730200  RH  065%=      5-min Rain = 0
KBY1 131402Z 07003KT 27/20 A2994 RMK A01 T02730200  RH  064%=      5-min Rain = 0
KBY1 131403Z 07003KT 27/20 A2995 RMK A01 T02740197  RH  063%=      5-min Rain = 0
KBY1 131404Z 07003KT 28/20 A2995 RMK A01 T02750198  RH  063%=      5-min Rain = 0
KBY1 131405Z 09004KT 28/20 A2995 RMK A01 T02760200  RH  063%=      5-min Rain = 0
KBY1 131406Z 09003KT 28/20 A2995 RMK A01 T02760200  RH  063%=      5-min Rain = 0
KBY1 131407Z 08003KT 28/20 A2995 RMK A01 T02760199  RH  063%=      5-min Rain = 0
KBY1 131408Z 06001KT 28/20 A2995 RMK A01 T02760198  RH  062%=      5-min Rain = 0
KBY1 131409Z 07003KT 28/20 A2995 RMK A01 T02760199  RH  063%=      5-min Rain = 0
KBY1 131410Z 04003KT 28/20 A2995 RMK A01 T02780199  RH  062%=      5-min Rain = 0
KBY1 131411Z 09003KT 28/20 A2995 RMK A01 T02790198  RH  061%=      5-min Rain = 0
KBY1 131412Z 10003KT 28/20 A2995 RMK A01 T02790197  RH  061%=      5-min Rain = 0
KBY1 131413Z 06003KT 28/20 A2995 RMK A01 T02800197  RH  061%=      5-min Rain = 0
KBY1 131414Z 05003KT 28/19 A2995 RMK A01 T02800194  RH  060%=      5-min Rain = 0
KBY1 131415Z 05003KT 28/19 A2995 RMK A01 T02800194  RH  060%=      5-min Rain = 0
KBY1 131416Z 04002KT 28/20 A2995 RMK A01 T02790195  RH  060%=      5-min Rain = 0
KBY1 131417Z 07003KT 28/19 A2995 RMK A01 T02810194  RH  059%=      5-min Rain = 0
KBY1 131418Z 09002KT 28/19 A2995 RMK A01 T02830185  RH  055%=      5-min Rain = 0
KBY1 131419Z 09002KT 29/19 A2995 RMK A01 T02850187  RH  055%=      5-min Rain = 0
KBY1 131420Z 10001KT 29/19 A2995 RMK A01 T02870188  RH  055%=      5-min Rain = 0
KBY1 131421Z 08002KT 29/19 A2995 RMK A01 T02890189  RH  055%=      5-min Rain = 0
KBY1 131422Z 07002KT 29/19 A2994 RMK A01 T02910190  RH  054%=      5-min Rain = 0
KBY1 131423Z 11002KT 29/19 A2994 RMK A01 T02930187  RH  053%=      5-min Rain = 0
KBY1 131424Z 13001KT 29/18 A2995 RMK A01 T02940183  RH  051%=      5-min Rain = 0
KBY1 131425Z 13002KT 29/18 A2994 RMK A01 T02930182  RH  051%=      5-min Rain = 0
KBY1 131426Z 05000KT 29/18 A2994 RMK A01 T02940183  RH  051%=      5-min Rain = 0
KBY1 131427Z 03002KT 30/18 A2994 RMK A01 T02950182  RH  051%=      5-min Rain = 0
KBY1 131428Z 06001KT 30/18 A2994 RMK A01 T02960184  RH  051%=      5-min Rain = 0
KBY1 131429Z 13002KT 30/19 A2994 RMK A01 T02980185  RH  051%=      5-min Rain = 0
KBY1 131430Z 12002KT 30/18 A2994 RMK A01 T02990182  RH  049%=      5-min Rain = 0
KBY1 131431Z 11001KT 30/18 A2994 RMK A01 T02990182  RH  049%=      5-min Rain = 0
KBY1 131432Z 10001KT 30/18 A2994 RMK A01 T02990182  RH  049%=      5-min Rain = 0
KBY1 131433Z 10002KT 30/18 A2994 RMK A01 T02990181  RH  049%=      5-min Rain = 0
KBY1 131434Z 09002KT 30/18 A2994 RMK A01 T03000183  RH  049%=      5-min Rain = 0
KBY1 131435Z 07002KT 30/18 A2994 RMK A01 T03010182  RH  049%=      5-min Rain = 0
KBY1 131436Z 13002KT 30/18 A2994 RMK A01 T03010182  RH  049%=      5-min Rain = 0
KBY1 131437Z 28003KT 30/18 A2994 RMK A01 T03000183  RH  050%=      5-min Rain = 0
KBY1 131438Z 26003KT 30/18 A2994 RMK A01 T03000181  RH  049%=      5-min Rain = 0
KBY1 131439Z 24002KT 30/18 A2994 RMK A01 T02990181  RH  049%=      5-min Rain = 0
KBY1 131440Z 23001KT 30/18 A2994 RMK A01 T02970180  RH  049%=      5-min Rain = 0
KBY1 131441Z 22001KT 30/18 A2994 RMK A01 T02970181  RH  050%=      5-min Rain = 0
KBY1 131442Z 25003KT 30/18 A2994 RMK A01 T02970180  RH  050%=      5-min Rain = 0
KBY1 131443Z 26004KT 30/18 A2994 RMK A01 T02970180  RH  049%=      5-min Rain = 0
KBY1 131444Z 26003KT 30/18 A2994 RMK A01 T02970179  RH  049%=      5-min Rain = 0
KBY1 131445Z 23003KT 30/18 A2994 RMK A01 T02970180  RH  049%=      5-min Rain = 0
KBY1 131446Z 24001KT 30/18 A2993 RMK A01 T02970180  RH  050%=      5-min Rain = 0
KBY1 131447Z 00000KT 30/18 A2993 RMK A01 T02970179  RH  049%=      5-min Rain = 0
KBY1 131448Z 10000KT 30/18 A2993 RMK A01 T02980176  RH  048%=      5-min Rain = 0
KBY1 131449Z 27000KT 30/18 A2993 RMK A01 T03010177  RH  047%=      5-min Rain = 0
KBY1 131450Z 29002KT 30/17 A2993 RMK A01 T03030170  RH  045%=      5-min Rain = 0
KBY1 131451Z 25001KT 31/17 A2993 RMK A01 T03050168  RH  044%=      5-min Rain = 0
KBY1 131452Z 28002KT 31/17 A2993 RMK A01 T03050168  RH  044%=      5-min Rain = 0
KBY1 131453Z 28004KT 31/17 A2993 RMK A01 T03070169  RH  044%=      5-min Rain = 0
KBY1 131454Z 27004KT 31/17 A2993 RMK A01 T03080169  RH  043%=      5-min Rain = 0
KBY1 131455Z 27004KT 31/17 A2993 RMK A01 T03080169  RH  043%=      5-min Rain = 0
KBY1 131456Z 26002KT 31/17 A2993 RMK A01 T03090167  RH  043%=      5-min Rain = 0
KBY1 131457Z 25004KT 31/17 A2993 RMK A01 T03090168  RH  043%=      5-min Rain = 0
KBY1 131458Z 26004KT 31/17 A2993 RMK A01 T03100169  RH  043%=      5-min Rain = 0
KBY1 131459Z 26003KT 31/16 A2993 RMK A01 T03120164  RH  041%=      5-min Rain = 0
KBY1 131500Z 26004KT 31/16 A2992 RMK A01 T03140159  RH  039%=      5-min Rain = 0
KBY1 131501Z 27002KT 32/16 A2992 RMK A01 T03150163  RH  040%=      5-min Rain = 0
KBY1 131502Z 27002KT 32/16 A2992 RMK A01 T03150163  RH  040%=      5-min Rain = 0
KBY1 131503Z 27003KT 32/16 A2992 RMK A01 T03150164  RH  040%=      5-min Rain = 0
KBY1 131504Z 25004KT 32/17 A2992 RMK A01 T03160165  RH  040%=      5-min Rain = 0
KBY1 131505Z 22003KT 32/17 A2992 RMK A01 T03190166  RH  040%=      5-min Rain = 0
KBY1 131506Z 22004KT 32/17 A2992 RMK A01 T03210168  RH  040%=      5-min Rain = 0
KBY1 131507Z 21004KT 32/16 A2992 RMK A01 T03210164  RH  039%=      5-min Rain = 0
KBY1 131508Z 24003KT 32/16 A2992 RMK A01 T03190164  RH  040%=      5-min Rain = 0
KBY1 131509Z 29000KT 32/17 A2992 RMK A01 T03180165  RH  040%=      5-min Rain = 0
KBY1 131510Z 03000KT 32/17 A2992 RMK A01 T03190165  RH  040%=      5-min Rain = 0
KBY1 131511Z 13003KT 32/16 A2992 RMK A01 T03210162  RH  038%=      5-min Rain = 0
KBY1 131512Z 16003KT 32/16 A2992 RMK A01 T03230156  RH  037%=      5-min Rain = 0
KBY1 131513Z 20004KT 32/14 A2992 RMK A01 T03230142  RH  033%=      5-min Rain = 0
KBY1 131514Z 22003KT 33/14 A2992 RMK A01 T03260136  RH  032%=      5-min Rain = 0
KBY1 131515Z 20002KT 33/14 A2992 RMK A01 T03270136  RH  031%=      5-min Rain = 0
KBY1 131516Z 15004KT 33/14 A2991 RMK A01 T03290135  RH  031%=      5-min Rain = 0
KBY1 131517Z 21004KT 33/13 A2991 RMK A01 T03330134  RH  030%=      5-min Rain = 0
KBY1 131518Z 25008G14KT 34/14 A2991 RMK A01 T03370138  RH  030%=      5-min Rain = 0
KBY1 131519Z 22010KT 34/12 A2991 RMK A01 T03380120  RH  027%=      5-min Rain = 0
KBY1 131520Z 23008KT 34/12 A2991 RMK A01 T03420122  RH  026%=      5-min Rain = 0
KBY1 131521Z 23009KT 34/12 A2991 RMK A01 T03430116  RH  025%=      5-min Rain = 0
KBY1 131522Z 23009KT 34/12 A2991 RMK A01 T03430116  RH  025%=      5-min Rain = 0
KBY1 131523Z 21006KT 34/12 A2991 RMK A01 T03440121  RH  026%=      5-min Rain = 0
KBY1 131524Z 22005KT 35/12 A2991 RMK A01 T03460119  RH  025%=      5-min Rain = 0
KBY1 131525Z 25009KT 35/13 A2991 RMK A01 T03480130  RH  027%=      5-min Rain = 0
KBY1 131526Z 27009KT 34/14 A2991 RMK A01 T03440138  RH  029%=      5-min Rain = 0
KBY1 131527Z 28005KT 34/14 A2991 RMK A01 T03410140  RH  030%=      5-min Rain = 0
KBY1 131528Z 27004KT 34/14 A2991 RMK A01 T03410135  RH  029%=      5-min Rain = 0
KBY1 131529Z 27005KT 34/14 A2991 RMK A01 T03410136  RH  029%=      5-min Rain = 0
KBY1 131530Z 27006KT 34/14 A2991 RMK A01 T03410137  RH  029%=      5-min Rain = 0
KBY1 131531Z 26006KT 34/14 A2991 RMK A01 T03410137  RH  029%=      5-min Rain = 0
KBY1 131532Z 27007G12KT 34/14 A2991 RMK A01 T03390136  RH  029%=      5-min Rain = 0
KBY1 131533Z 26012KT 34/12 A2991 RMK A01 T03400120  RH  026%=      5-min Rain = 0
KBY1 131534Z 24009KT 34/12 A2991 RMK A01 T03400116  RH  026%=      5-min Rain = 0
KBY1 131535Z 23008KT 34/12 A2991 RMK A01 T03410117  RH  026%=      5-min Rain = 0
KBY1 131536Z 24008KT 34/12 A2991 RMK A01 T03430118  RH  026%=      5-min Rain = 0
KBY1 131537Z 25007KT 34/12 A2991 RMK A01 T03430120  RH  026%=      5-min Rain = 0
KBY1 131538Z 24008KT 35/12 A2991 RMK A01 T03450116  RH  025%=      5-min Rain = 0
KBY1 131539Z 22006KT 34/12 A299 RMK A01 T03440115  RH  025%=      5-min Rain = 0
KBY1 131540Z 23005KT 34/12 A299 RMK A01 T03440115  RH  025%=      5-min Rain = 0
KBY1 131541Z 23008KT 35/12 A299 RMK A01 T03450116  RH  025%=      5-min Rain = 0
KBY1 131542Z 25006KT 35/12 A299 RMK A01 T03460115  RH  025%=      5-min Rain = 0
KBY1 131543Z 25003KT 35/12 A299 RMK A01 T03470119  RH  025%=      5-min Rain = 0
KBY1 131544Z 24006KT 35/12 A299 RMK A01 T03520120  RH  025%=      5-min Rain = 0
KBY1 131545Z 23008KT 35/12 A299 RMK A01 T03540117  RH  024%=      5-min Rain = 0
KBY1 131546Z 24011KT 35/11 A299 RMK A01 T03540112  RH  023%=      5-min Rain = 0
KBY1 131547Z 24009KT 35/11 A299 RMK A01 T03540110  RH  023%=      5-min Rain = 0
KBY1 131548Z 24007KT 35/11 A299 RMK A01 T03540112  RH  023%=      5-min Rain = 0
KBY1 131549Z 24008KT 35/11 A299 RMK A01 T03540114  RH  023%=      5-min Rain = 0
KBY1 131550Z 22009KT 36/11 A299 RMK A01 T03550112  RH  023%=      5-min Rain = 0
KBY1 131551Z 22007KT 36/11 A299 RMK A01 T03570108  RH  022%=      5-min Rain = 0
KBY1 131552Z 22011KT 36/11 A299 RMK A01 T03580109  RH  022%=      5-min Rain = 0
KBY1 131553Z 22012KT 36/11 A299 RMK A01 T03580108  RH  022%=      5-min Rain = 0
KBY1 131554Z 21012KT 36/11 A299 RMK A01 T03580109  RH  022%=      5-min Rain = 0
KBY1 131555Z 22011KT 36/11 A2989 RMK A01 T03580108  RH  022%=      5-min Rain = 0
KBY1 131556Z 21011KT 36/11 A2989 RMK A01 T03580108  RH  022%=      5-min Rain = 0
KBY1 131557Z 22008KT 36/11 A2989 RMK A01 T03590107  RH  022%=      5-min Rain = 0
KBY1 131558Z 22010G17KT 36/11 A2989 RMK A01 T03620113  RH  022%=      5-min Rain = 0
KBY1 131559Z 24012KT 36/11 A2989 RMK A01 T03640113  RH  022%=      5-min Rain = 0
KBY1 131600Z 26008KT 37/11 A2989 RMK A01 T03650108  RH  021%=      5-min Rain = 0
KBY1 131601Z 29005KT 36/11 A2989 RMK A01 T03630107  RH  021%=      5-min Rain = 0
KBY1 131602Z 25005KT 36/11 A2989 RMK A01 T03620110  RH  022%=      5-min Rain = 0
KBY1 131603Z 25011KT 36/11 A2989 RMK A01 T03610110  RH  022%=      5-min Rain = 0
KBY1 131604Z 24013KT 36/11 A2989 RMK A01 T03640105  RH  021%=      5-min Rain = 0
KBY1 131605Z 25013KT 37/10 A2989 RMK A01 T03660102  RH  020%=      5-min Rain = 0
KBY1 131606Z 24010KT 36/10 A2989 RMK A01 T03640104  RH  021%=      5-min Rain = 0
KBY1 131607Z 25010KT 36/10 A2989 RMK A01 T03630104  RH  021%=      5-min Rain = 0
KBY1 131608Z 25008KT 36/11 A2989 RMK A01 T03620106  RH  021%=      5-min Rain = 0
KBY1 131609Z 26008KT 36/11 A2989 RMK A01 T03630106  RH  021%=      5-min Rain = 0
KBY1 131610Z 26010KT 36/11 A2989 RMK A01 T03640105  RH  021%=      5-min Rain = 0
KBY1 131611Z 24010KT 36/10 A2989 RMK A01 T03610103  RH  021%=      5-min Rain = 0
KBY1 131612Z 23008KT 36/11 A2989 RMK A01 T03610105  RH  021%=      5-min Rain = 0
KBY1 131613Z 23008KT 37/11 A2989 RMK A01 T03650106  RH  021%=      5-min Rain = 0
KBY1 131614Z 23010KT 37/11 A2989 RMK A01 T03670105  RH  021%=      5-min Rain = 0
KBY1 131615Z 23010KT 37/11 A2989 RMK A01 T03670105  RH  021%=      5-min Rain = 0
KBY1 131616Z 23009KT 37/10 A2989 RMK A01 T03670104  RH  020%=      5-min Rain = 0
KBY1 131617Z 24009KT 37/11 A2989 RMK A01 T03660106  RH  021%=      5-min Rain = 0
KBY1 131618Z 25009KT 37/11 A2989 RMK A01 T03660107  RH  021%=      5-min Rain = 0
KBY1 131619Z 24008KT 36/11 A2989 RMK A01 T03640106  RH  021%=      5-min Rain = 0
KBY1 131620Z 23008KT 36/11 A2989 RMK A01 T03620106  RH  021%=      5-min Rain = 0
KBY1 131621Z 22008KT 36/11 A2989 RMK A01 T03620106  RH  021%=      5-min Rain = 0
KBY1 131622Z 23007KT 36/11 A2989 RMK A01 T03630107  RH  021%=      5-min Rain = 0
KBY1 131623Z 25008KT 37/11 A2989 RMK A01 T03660107  RH  021%=      5-min Rain = 0
KBY1 131624Z 24008KT 37/11 A2989 RMK A01 T03670107  RH  021%=      5-min Rain = 0
KBY1 131625Z 25006KT 37/10 A2989 RMK A01 T03670103  RH  020%=      5-min Rain = 0
KBY1 131626Z 23008KT 37/11 A2989 RMK A01 T03670107  RH  021%=      5-min Rain = 0
KBY1 131627Z 25006KT 37/11 A2989 RMK A01 T03690109  RH  021%=      5-min Rain = 0
KBY1 131628Z 27009KT 37/11 A2989 RMK A01 T03730111  RH  021%=      5-min Rain = 0
KBY1 131629Z 28008KT 37/11 A2988 RMK A01 T03720106  RH  020%=      5-min Rain = 0
KBY1 131630Z 26006KT 37/11 A2988 RMK A01 T03690108  RH  021%=      5-min Rain = 0
KBY1 131631Z 25006KT 37/11 A2988 RMK A01 T03700111  RH  021%=      5-min Rain = 0
KBY1 131632Z 27007G12KT 37/11 A2988 RMK A01 T03740110  RH  021%=      5-min Rain = 0
KBY1 131633Z 24009KT 38/11 A2988 RMK A01 T03760109  RH  020%=      5-min Rain = 0
KBY1 131634Z 24006KT 38/11 A2988 RMK A01 T03760109  RH  020%=      5-min Rain = 0
KBY1 131635Z 23006KT 38/11 A2988 RMK A01 T03750105  RH  020%=      5-min Rain = 0
KBY1 131636Z 21008KT 37/11 A2988 RMK A01 T03730106  RH  020%=      5-min Rain = 0
KBY1 131637Z 26012KT 37/11 A2988 RMK A01 T03720105  RH  020%=      5-min Rain = 0
KBY1 131638Z 27008KT 37/10 A2988 RMK A01 T03730102  RH  019%=      5-min Rain = 0
KBY1 131639Z 27007KT 37/10 A2988 RMK A01 T03730104  RH  020%=      5-min Rain = 0
KBY1 131640Z 26009KT 37/10 A2988 RMK A01 T03740104  RH  020%=      5-min Rain = 0
KBY1 131641Z 25008KT 38/10 A2988 RMK A01 T03750102  RH  019%=      5-min Rain = 0
KBY1 131642Z 23007KT 38/10 A2988 RMK A01 T03760102  RH  019%=      5-min Rain = 0
KBY1 131643Z 24009KT 38/10 A2988 RMK A01 T03760102  RH  019%=      5-min Rain = 0
KBY1 131644Z 24008KT 38/10 A2988 RMK A01 T03760102  RH  019%=      5-min Rain = 0
KBY1 131645Z 25009KT 37/10 A2988 RMK A01 T03740101  RH  019%=      5-min Rain = 0
KBY1 131646Z 25009KT 38/10 A2988 RMK A01 T03750102  RH  019%=      5-min Rain = 0
KBY1 131647Z 26009KT 38/10 A2988 RMK A01 T03780100  RH  019%=      5-min Rain = 0
KBY1 131648Z 25009KT 38/10 A2988 RMK A01 T03790101  RH  019%=      5-min Rain = 0
KBY1 131649Z 26007KT 38/10 A2988 RMK A01 T03810100  RH  018%=      5-min Rain = 0
KBY1 131650Z 25009KT 38/10 A2988 RMK A01 T03810100  RH  018%=      5-min Rain = 0
KBY1 131651Z 26011KT 38/10 A2988 RMK A01 T03790097  RH  018%=      5-min Rain = 0
KBY1 131652Z 27010KT 38/09 A2988 RMK A01 T03770094  RH  018%=      5-min Rain = 0
KBY1 131653Z 26008KT 38/10 A2988 RMK A01 T03750095  RH  018%=      5-min Rain = 0
KBY1 131654Z 27008KT 38/10 A2988 RMK A01 T03750098  RH  019%=      5-min Rain = 0
KBY1 131655Z 25008KT 38/10 A2988 RMK A01 T03770099  RH  019%=      5-min Rain = 0
KBY1 131656Z 24005KT 38/10 A2988 RMK A01 T03780099  RH  019%=      5-min Rain = 0
KBY1 131657Z 24005KT 38/10 A2988 RMK A01 T03780098  RH  018%=      5-min Rain = 0
KBY1 131658Z 24005KT 38/10 A2988 RMK A01 T03780100  RH  019%=      5-min Rain = 0
KBY1 131659Z 24008KT 38/10 A2988 RMK A01 T03780100  RH  019%=      5-min Rain = 0
KBY1 131700Z 24009KT 38/10 A2988 RMK A01 T03780101  RH  019%=      5-min Rain = 0
KBY1 131701Z 27009KT 38/10 A2988 RMK A01 T03780102  RH  019%=      5-min Rain = 0
KBY1 131702Z 27007KT 38/10 A2988 RMK A01 T03790102  RH  019%=      5-min Rain = 0
KBY1 131703Z 25009KT 38/10 A2988 RMK A01 T03810098  RH  018%=      5-min Rain = 0
KBY1 131704Z 23008KT 38/10 A2988 RMK A01 T03830100  RH  018%=      5-min Rain = 0
KBY1 131705Z 26010KT 39/10 A2988 RMK A01 T03860101  RH  018%=      5-min Rain = 0
KBY1 131706Z 27008KT 39/10 A2988 RMK A01 T03860098  RH  018%=      5-min Rain = 0
KBY1 131707Z 26006KT 38/10 A2988 RMK A01 T03830096  RH  018%=      5-min Rain = 0
KBY1 131708Z 25006KT 38/10 A2987 RMK A01 T03800098  RH  018%=      5-min Rain = 0
KBY1 131709Z 26006KT 38/10 A2987 RMK A01 T03790100  RH  019%=      5-min Rain = 0
KBY1 131710Z 25009KT 38/10 A2987 RMK A01 T03830102  RH  018%=      5-min Rain = 0
KBY1 131711Z 24009KT 39/10 A2987 RMK A01 T03860101  RH  018%=      5-min Rain = 0
KBY1 131712Z 23010KT 39/10 A2987 RMK A01 T03870099  RH  018%=      5-min Rain = 0
KBY1 131713Z 23011KT 39/10 A2987 RMK A01 T03870098  RH  018%=      5-min Rain = 0
KBY1 131714Z 23010KT 39/10 A2987 RMK A01 T03860095  RH  017%=      5-min Rain = 0
KBY1 131715Z 22005KT 38/09 A2987 RMK A01 T03820094  RH  018%=      5-min Rain = 0
KBY1 131716Z 24004KT 38/10 A2987 RMK A01 T03820096  RH  018%=      5-min Rain = 0
KBY1 131717Z 21004KT 38/10 A2987 RMK A01 T03830096  RH  018%=      5-min Rain = 0
KBY1 131718Z 25004KT 38/10 A2987 RMK A01 T03840095  RH  018%=      5-min Rain = 0
KBY1 131719Z 26005KT 38/09 A2987 RMK A01 T03840094  RH  017%=      5-min Rain = 0
KBY1 131720Z 26008KT 38/09 A2987 RMK A01 T03830093  RH  017%=      5-min Rain = 0
KBY1 131721Z 26010G15KT 38/10 A2987 RMK A01 T03840095  RH  018%=      5-min Rain = 0
KBY1 131722Z 24007G14KT 39/10 A2987 RMK A01 T03870097  RH  018%=      5-min Rain = 0
KBY1 131723Z 25012G17KT 39/10 A2986 RMK A01 T03900099  RH  017%=      5-min Rain = 0
KBY1 131724Z 25007KT 39/10 A2987 RMK A01 T03940099  RH  017%=      5-min Rain = 0
KBY1 131725Z 26010KT 40/10 A2987 RMK A01 T03960100  RH  017%=      5-min Rain = 0
KBY1 131726Z 27008KT 40/10 A2987 RMK A01 T03960100  RH  017%=      5-min Rain = 0
KBY1 131727Z 28007KT 39/10 A2986 RMK A01 T03940099  RH  017%=      5-min Rain = 0
KBY1 131728Z 27007KT 39/10 A2986 RMK A01 T03930099  RH  017%=      5-min Rain = 0
KBY1 131729Z 28007KT 39/10 A2986 RMK A01 T03930099  RH  017%=      5-min Rain = 0
KBY1 131730Z 27008KT 39/10 A2986 RMK A01 T03910101  RH  018%=      5-min Rain = 0
KBY1 131731Z 28007G12KT 39/10 A2986 RMK A01 T03890101  RH  018%=      5-min Rain = 0
KBY1 131732Z 29007KT 39/10 A2986 RMK A01 T03860101  RH  018%=      5-min Rain = 0
KBY1 131733Z 31007KT 39/10 A2986 RMK A01 T03850100  RH  018%=      5-min Rain = 0
KBY1 131734Z 29006KT 38/10 A2986 RMK A01 T03840098  RH  018%=      5-min Rain = 0
KBY1 131735Z 26010KT 39/10 A2986 RMK A01 T03870100  RH  018%=      5-min Rain = 0
KBY1 131736Z 27009KT 39/10 A2986 RMK A01 T03900097  RH  017%=      5-min Rain = 0
KBY1 131737Z 27007KT 39/10 A2986 RMK A01 T03890097  RH  017%=      5-min Rain = 0
KBY1 131738Z 24009G14KT 39/10 A2986 RMK A01 T03900097  RH  017%=      5-min Rain = 0
KBY1 131739Z 21007KT 39/10 A2986 RMK A01 T03880095  RH  017%=      5-min Rain = 0
KBY1 131740Z 22004KT 39/10 A2986 RMK A01 T03870097  RH  018%=      5-min Rain = 0
KBY1 131741Z 23004KT 39/10 A2986 RMK A01 T03870096  RH  017%=      5-min Rain = 0
KBY1 131742Z 25010KT 39/10 A2986 RMK A01 T03860098  RH  018%=      5-min Rain = 0
KBY1 131743Z 25006KT 39/10 A2986 RMK A01 T03860097  RH  018%=      5-min Rain = 0
KBY1 131744Z 27006KT 39/10 A2986 RMK A01 T03850100  RH  018%=      5-min Rain = 0
KBY1 131745Z 27005KT 39/10 A2986 RMK A01 T03870102  RH  018%=      5-min Rain = 0
KBY1 131746Z 27010KT 39/10 A2986 RMK A01 T03920102  RH  018%=      5-min Rain = 0
KBY1 131747Z 29008KT 39/10 A2986 RMK A01 T03930097  RH  017%=      5-min Rain = 0
KBY1 131748Z 30012KT 39/10 A2985 RMK A01 T03930096  RH  017%=      5-min Rain = 0
KBY1 131749Z 27011KT 39/10 A2986 RMK A01 T03920095  RH  017%=      5-min Rain = 0
KBY1 131750Z 27011KT 39/10 A2986 RMK A01 T03920096  RH  017%=      5-min Rain = 0
KBY1 131751Z 27011KT 39/09 A2986 RMK A01 T03920094  RH  017%=      5-min Rain = 0
KBY1 131752Z 28010KT 39/09 A2986 RMK A01 T03930093  RH  016%=      5-min Rain = 0
KBY1 131753Z 29011KT 39/09 A2986 RMK A01 T03930091  RH  016%=      5-min Rain = 0
KBY1 131754Z 28009KT 39/09 A2986 RMK A01 T03910091  RH  016%=      5-min Rain = 0
KBY1 131755Z 29007KT 39/09 A2986 RMK A01 T03900093  RH  017%=      5-min Rain = 0
KBY1 131756Z 27010KT 39/09 A2986 RMK A01 T03900094  RH  017%=      5-min Rain = 0
KBY1 131757Z 26011KT 39/10 A2985 RMK A01 T03910095  RH  017%=      5-min Rain = 0
KBY1 131758Z 28009KT 39/10 A2986 RMK A01 T03930096  RH  017%=      5-min Rain = 0
KBY1 131759Z 27006KT 39/10 A2986 RMK A01 T03930097  RH  017%=      5-min Rain = 0
KBY1 131800Z 26007KT 39/10 A2986 RMK A01 T03940097  RH  017%=      5-min Rain = 0
KBY1 131801Z 26009KT 40/10 A2986 RMK A01 T03950099  RH  017%=      5-min Rain = 0
KBY1 131802Z 26009KT 40/10 A2986 RMK A01 T03950098  RH  017%=      5-min Rain = 0
KBY1 131803Z 25009KT 39/10 A2986 RMK A01 T03940098  RH  017%=      5-min Rain = 0
KBY1 131804Z 24008G14KT 39/10 A2985 RMK A01 T03920100  RH  017%=      5-min Rain = 0
KBY1 131805Z 29010G17KT 39/10 A2985 RMK A01 T03940101  RH  017%=      5-min Rain = 0
KBY1 131806Z 29010KT 40/10 A2985 RMK A01 T03950100  RH  017%=      5-min Rain = 0
KBY1 131807Z 28009KT 40/10 A2985 RMK A01 T03950099  RH  017%=      5-min Rain = 0
KBY1 131808Z 27010KT 40/10 A2985 RMK A01 T03950100  RH  017%=      5-min Rain = 0
KBY1 131809Z 29012KT 40/10 A2985 RMK A01 T03960101  RH  017%=      5-min Rain = 0
KBY1 131810Z 29010KT 40/10 A2985 RMK A01 T03960101  RH  017%=      5-min Rain = 0
KBY1 131811Z 26007KT 40/10 A2985 RMK A01 T03970100  RH  017%=      5-min Rain = 0
KBY1 131812Z 26008KT 40/10 A2985 RMK A01 T03980103  RH  017%=      5-min Rain = 0
KBY1 131813Z 25008KT 40/10 A2985 RMK A01 T03970103  RH  017%=      5-min Rain = 0
KBY1 131814Z 26012KT 40/10 A2985 RMK A01 T03980103  RH  017%=      5-min Rain = 0
KBY1 131815Z 27011KT 40/10 A2985 RMK A01 T03990101  RH  017%=      5-min Rain = 0
KBY1 131816Z 28010KT 40/10 A2985 RMK A01 T03950098  RH  017%=      5-min Rain = 0
KBY1 131817Z 29010KT 39/10 A2985 RMK A01 T03930099  RH  017%=      5-min Rain = 0
KBY1 131818Z 25012KT 39/10 A2985 RMK A01 T03940100  RH  017%=      5-min Rain = 0
KBY1 131819Z 25011KT 40/10 A2985 RMK A01 T03960099  RH  017%=      5-min Rain = 0
KBY1 131820Z 24013KT 40/10 A2985 RMK A01 T03950099  RH  017%=      5-min Rain = 0
KBY1 131821Z 25010KT 40/10 A2985 RMK A01 T03960098  RH  017%=      5-min Rain = 0
KBY1 131822Z 25010KT 40/10 A2985 RMK A01 T03960096  RH  017%=      5-min Rain = 0
KBY1 131823Z 25012KT 40/10 A2985 RMK A01 T03950099  RH  017%=      5-min Rain = 0
KBY1 131824Z 26012KT 40/10 A2985 RMK A01 T03970100  RH  017%=      5-min Rain = 0
KBY1 131825Z 25009KT 40/10 A2985 RMK A01 T03950099  RH  017%=      5-min Rain = 0
KBY1 131826Z 28010KT 39/10 A2985 RMK A01 T03920101  RH  017%=      5-min Rain = 0
KBY1 131827Z 26008KT 39/11 A2985 RMK A01 T03910105  RH  018%=      5-min Rain = 0
KBY1 131828Z 27011KT 40/11 A2985 RMK A01 T03960107  RH  018%=      5-min Rain = 0
KBY1 131829Z 25010G16KT 40/11 A2985 RMK A01 T03990108  RH  018%=      5-min Rain = 0
KBY1 131830Z 23011KT 40/10 A2985 RMK A01 T04010100  RH  016%=      5-min Rain = 0
KBY1 131831Z 23009KT 40/10 A2985 RMK A01 T03980100  RH  017%=      5-min Rain = 0
KBY1 131832Z 22008KT 39/10 A2985 RMK A01 T03940098  RH  017%=      5-min Rain = 0
KBY1 131833Z 22004KT 39/10 A2985 RMK A01 T03940100  RH  017%=      5-min Rain = 0
KBY1 131834Z 27008KT 40/10 A2985 RMK A01 T03960103  RH  017%=      5-min Rain = 0
KBY1 131835Z 27005KT 40/10 A2985 RMK A01 T03950101  RH  017%=      5-min Rain = 0
KBY1 131836Z 28007G13KT 39/10 A2984 RMK A01 T03930103  RH  018%=      5-min Rain = 0
KBY1 131837Z 27010KT 39/10 A2984 RMK A01 T03940102  RH  017%=      5-min Rain = 0
KBY1 131838Z 29010KT 40/10 A2984 RMK A01 T03950102  RH  017%=      5-min Rain = 0
KBY1 131839Z 28011KT 40/10 A2984 RMK A01 T03950104  RH  017%=      5-min Rain = 0
KBY1 131840Z 25009KT 40/10 A2984 RMK A01 T03960103  RH  017%=      5-min Rain = 0
KBY1 131841Z 24009KT 40/10 A2984 RMK A01 T03960103  RH  017%=      5-min Rain = 0
KBY1 131842Z 25009KT 40/11 A2984 RMK A01 T03970105  RH  017%=      5-min Rain = 0
KBY1 131843Z 23009KT 40/11 A2984 RMK A01 T04010105  RH  017%=      5-min Rain = 0
KBY1 131844Z 22008KT 40/10 A2984 RMK A01 T04020104  RH  017%=      5-min Rain = 0
KBY1 131845Z 27009KT 40/11 A2984 RMK A01 T04020106  RH  017%=      5-min Rain = 0
KBY1 131846Z 27008KT 40/11 A2984 RMK A01 T04010105  RH  017%=      5-min Rain = 0
KBY1 131847Z 25007KT 40/11 A2984 RMK A01 T03990105  RH  017%=      5-min Rain = 0
KBY1 131848Z 30005G10KT 40/10 A2984 RMK A01 T03970104  RH  017%=      5-min Rain = 0
KBY1 131849Z 30008KT 40/10 A2984 RMK A01 T03960104  RH  017%=      5-min Rain = 0
KBY1 131850Z 27006G11KT 40/11 A2984 RMK A01 T03980106  RH  018%=      5-min Rain = 0
KBY1 131851Z 29009KT 40/11 A2984 RMK A01 T03990106  RH  017%=      5-min Rain = 0
KBY1 131852Z 30008KT 40/10 A2983 RMK A01 T04000104  RH  017%=      5-min Rain = 0
KBY1 131853Z 31006KT 40/10 A2983 RMK A01 T03990103  RH  017%=      5-min Rain = 0
KBY1 131854Z 30005KT 40/10 A2983 RMK A01 T03980103  RH  017%=      5-min Rain = 0
KBY1 131855Z 30005KT 40/10 A2983 RMK A01 T03970102  RH  017%=      5-min Rain = 0
KBY1 131856Z 31006KT 40/10 A2983 RMK A01 T03970104  RH  017%=      5-min Rain = 0
KBY1 131857Z 25007KT 40/11 A2983 RMK A01 T03990107  RH  017%=      5-min Rain = 0
KBY1 131858Z 23011KT 40/10 A2983 RMK A01 T04040103  RH  017%=      5-min Rain = 0
KBY1 131859Z 23008KT 40/10 A2983 RMK A01 T04040101  RH  016%=      5-min Rain = 0
KBY1 131900Z 23008KT 41/10 A2983 RMK A01 T04050102  RH  016%=      5-min Rain = 0
KBY1 131901Z 23005KT 41/10 A2983 RMK A01 T04060101  RH  016%=      5-min Rain = 0
KBY1 131902Z 21003KT 41/10 A2983 RMK A01 T04050101  RH  016%=      5-min Rain = 0
KBY1 131903Z 20005KT 41/10 A2983 RMK A01 T04050099  RH  016%=      5-min Rain = 0
KBY1 131904Z 21004KT 40/10 A2983 RMK A01 T04040099  RH  016%=      5-min Rain = 0
KBY1 131905Z 23004KT 40/10 A2983 RMK A01 T04030100  RH  016%=      5-min Rain = 0
KBY1 131906Z 25002KT 40/10 A2983 RMK A01 T04030097  RH  016%=      5-min Rain = 0
KBY1 131907Z 24003G8KT 40/10 A2983 RMK A01 T04030098  RH  016%=      5-min Rain = 0
KBY1 131908Z 25009KT 41/10 A2983 RMK A01 T04050097  RH  016%=      5-min Rain = 0
KBY1 131909Z 28010KT 41/09 A2983 RMK A01 T04090091  RH  015%=      5-min Rain = 0
KBY1 131910Z 26010KT 41/09 A2983 RMK A01 T04090090  RH  015%=      5-min Rain = 0
KBY1 131911Z 27008KT 41/09 A2983 RMK A01 T04080093  RH  015%=      5-min Rain = 0
KBY1 131912Z 27008KT 41/09 A2983 RMK A01 T04080094  RH  015%=      5-min Rain = 0
KBY1 131913Z 26007KT 41/09 A2983 RMK A01 T04090094  RH  015%=      5-min Rain = 0
KBY1 131914Z 25007KT 41/09 A2982 RMK A01 T04120094  RH  015%=      5-min Rain = 0
KBY1 131915Z 25006KT 41/09 A2982 RMK A01 T04140091  RH  015%=      5-min Rain = 0
KBY1 131916Z 27010KT 41/09 A2982 RMK A01 T04120093  RH  015%=      5-min Rain = 0
KBY1 131917Z 29009KT 41/09 A2982 RMK A01 T04110094  RH  015%=      5-min Rain = 0
KBY1 131918Z 27009G14KT 41/09 A2982 RMK A01 T04120094  RH  015%=      5-min Rain = 0
KBY1 131919Z 27011KT 41/09 A2982 RMK A01 T04120091  RH  015%=      5-min Rain = 0
KBY1 131920Z 28008KT 41/09 A2983 RMK A01 T04110087  RH  014%=      5-min Rain = 0
KBY1 131921Z 27009KT 41/09 A2982 RMK A01 T04090089  RH  015%=      5-min Rain = 0
KBY1 131922Z 26005KT 41/09 A2982 RMK A01 T04080089  RH  015%=      5-min Rain = 0
KBY1 131923Z 27007G12KT 41/09 A2982 RMK A01 T04070089  RH  015%=      5-min Rain = 0
KBY1 131924Z 28008KT 41/10 A2982 RMK A01 T04080095  RH  015%=      5-min Rain = 0
KBY1 131925Z 30006KT 41/09 A2982 RMK A01 T04060094  RH  015%=      5-min Rain = 0
KBY1 131926Z 31005KT 40/09 A2982 RMK A01 T04030093  RH  016%=      5-min Rain = 0
KBY1 131927Z 28005KT 40/09 A2982 RMK A01 T04020094  RH  016%=      5-min Rain = 0
KBY1 131928Z 33005KT 40/09 A2982 RMK A01 T04020094  RH  016%=      5-min Rain = 0
KBY1 131929Z 32006KT 40/10 A2982 RMK A01 T04030095  RH  016%=      5-min Rain = 0
KBY1 131930Z 30004KT 40/09 A2982 RMK A01 T04040094  RH  016%=      5-min Rain = 0
KBY1 131931Z 27005KT 40/10 A2982 RMK A01 T04040095  RH  016%=      5-min Rain = 0
KBY1 131932Z 30006KT 41/10 A2982 RMK A01 T04050096  RH  016%=      5-min Rain = 0
KBY1 131933Z 32007KT 41/10 A2982 RMK A01 T04050101  RH  016%=      5-min Rain = 0
KBY1 131934Z 31006KT 40/10 A2982 RMK A01 T04030101  RH  016%=      5-min Rain = 0
KBY1 131935Z 30006KT 40/10 A2982 RMK A01 T04020100  RH  016%=      5-min Rain = 0
KBY1 131936Z 31006KT 40/10 A2982 RMK A01 T04000102  RH  017%=      5-min Rain = 0
KBY1 131937Z 31007KT 40/10 A2982 RMK A01 T04000101  RH  017%=      5-min Rain = 0
KBY1 131938Z 31008KT 40/10 A2982 RMK A01 T04010102  RH  017%=      5-min Rain = 0
KBY1 131939Z 28007KT 40/10 A2982 RMK A01 T04000100  RH  017%=      5-min Rain = 0
KBY1 131940Z 28003KT 40/10 A2982 RMK A01 T04000102  RH  017%=      5-min Rain = 0
KBY1 131941Z 28004KT 40/10 A2982 RMK A01 T04010104  RH  017%=      5-min Rain = 0
KBY1 131942Z 31005KT 40/11 A2982 RMK A01 T04040107  RH  017%=      5-min Rain = 0
KBY1 131943Z 33005KT 41/10 A2982 RMK A01 T04070104  RH  016%=      5-min Rain = 0
KBY1 131944Z 33006KT 41/10 A2982 RMK A01 T04070103  RH  016%=      5-min Rain = 0
KBY1 131945Z 33006KT 41/10 A2981 RMK A01 T04060103  RH  016%=      5-min Rain = 0
KBY1 131946Z 33006KT 41/10 A2981 RMK A01 T04070102  RH  016%=      5-min Rain = 0
KBY1 131947Z 32009KT 41/10 A2981 RMK A01 T04070103  RH  016%=      5-min Rain = 0
KBY1 131948Z 33007KT 41/10 A2982 RMK A01 T04050103  RH  016%=      5-min Rain = 0
KBY1 131949Z 33008G13KT 40/10 A2982 RMK A01 T04040103  RH  017%=      5-min Rain = 0
KBY1 131950Z 34011KT 40/11 A2982 RMK A01 T04020105  RH  017%=      5-min Rain = 0
KBY1 131951Z 33006KT 40/11 A2982 RMK A01 T04020107  RH  017%=      5-min Rain = 0
KBY1 131952Z 33006KT 40/11 A2982 RMK A01 T04040109  RH  017%=      5-min Rain = 0
KBY1 131953Z 34007KT 41/11 A2982 RMK A01 T04060111  RH  017%=      5-min Rain = 0
KBY1 131954Z 34008KT 41/11 A2982 RMK A01 T04060109  RH  017%=      5-min Rain = 0
KBY1 131955Z 33008KT 40/11 A2982 RMK A01 T04040110  RH  017%=      5-min Rain = 0
KBY1 131956Z 33010KT 40/11 A2982 RMK A01 T04030110  RH  017%=      5-min Rain = 0
KBY1 131957Z 35009KT 40/11 A2982 RMK A01 T04000110  RH  018%=      5-min Rain = 0
KBY1 131958Z 34010KT 40/11 A2982 RMK A01 T04000110  RH  018%=      5-min Rain = 0
KBY1 131959Z 36011KT 40/11 A2982 RMK A01 T03990108  RH  018%=      5-min Rain = 0
KBY1 132000Z 36008KT 40/11 A2982 RMK A01 T03980109  RH  018%=      5-min Rain = 0
KBY1 132001Z 35010KT 40/11 A2982 RMK A01 T03990111  RH  018%=      5-min Rain = 0
KBY1 132002Z 35011KT 40/11 A2982 RMK A01 T04010110  RH  018%=      5-min Rain = 0
KBY1 132003Z 35008KT 40/11 A2981 RMK A01 T04030110  RH  017%=      5-min Rain = 0
KBY1 132004Z 00009KT 40/11 A2981 RMK A01 T04040108  RH  017%=      5-min Rain = 0
KBY1 132005Z 36008KT 40/11 A2981 RMK A01 T04040107  RH  017%=      5-min Rain = 0
KBY1 132006Z 35006KT 40/11 A2981 RMK A01 T04040108  RH  017%=      5-min Rain = 0
KBY1 132007Z 35007KT 41/11 A2981 RMK A01 T04070105  RH  017%=      5-min Rain = 0
KBY1 132008Z 01007KT 41/11 A2981 RMK A01 T04070105  RH  017%=      5-min Rain = 0
KBY1 132009Z 02007KT 41/11 A2981 RMK A01 T04090106  RH  016%=      5-min Rain = 0
KBY1 132010Z 36005KT 41/10 A2981 RMK A01 T04100103  RH  016%=      5-min Rain = 0
KBY1 132011Z 34002KT 41/11 A2981 RMK A01 T04090105  RH  016%=      5-min Rain = 0
KBY1 132012Z 34006G11KT 41/11 A2981 RMK A01 T04110106  RH  016%=      5-min Rain = 0
KBY1 132013Z 34006KT 41/11 A2981 RMK A01 T04120106  RH  016%=      5-min Rain = 0
KBY1 132014Z 35006KT 41/11 A2981 RMK A01 T04120105  RH  016%=      5-min Rain = 0
KBY1 132015Z 33006KT 41/10 A2981 RMK A01 T04100101  RH  016%=      5-min Rain = 0
KBY1 132016Z 00006KT 41/10 A2981 RMK A01 T04070102  RH  016%=      5-min Rain = 0
KBY1 132017Z 34009KT 41/11 A2981 RMK A01 T04070107  RH  017%=      5-min Rain = 0
KBY1 132018Z 00009KT 41/11 A2981 RMK A01 T04110107  RH  016%=      5-min Rain = 0
KBY1 132019Z 35006KT 41/10 A2981 RMK A01 T04100103  RH  016%=      5-min Rain = 0
KBY1 132020Z 00005G10KT 41/11 A2981 RMK A01 T04070106  RH  017%=      5-min Rain = 0
KBY1 132021Z 33011KT 41/11 A2981 RMK A01 T04090109  RH  017%=      5-min Rain = 0
KBY1 132022Z 33011KT 41/11 A2981 RMK A01 T04110110  RH  017%=      5-min Rain = 0
KBY1 132023Z 33012KT 41/11 A2981 RMK A01 T04110111  RH  017%=      5-min Rain = 0
KBY1 132024Z 34010KT 41/11 A2981 RMK A01 T04100110  RH  017%=      5-min Rain = 0
KBY1 132025Z 35010KT 41/11 A2981 RMK A01 T04090108  RH  017%=      5-min Rain = 0
KBY1 132026Z 36008KT 41/11 A2981 RMK A01 T04060107  RH  017%=      5-min Rain = 0
KBY1 132027Z 02009KT 41/11 A298 RMK A01 T04060108  RH  017%=      5-min Rain = 0
KBY1 132028Z 03010KT 41/11 A298 RMK A01 T04070107  RH  017%=      5-min Rain = 0
KBY1 132029Z 04010KT 41/11 A298 RMK A01 T04070107  RH  017%=      5-min Rain = 0
KBY1 132030Z 05007KT 41/11 A298 RMK A01 T04080107  RH  017%=      5-min Rain = 0
KBY1 132031Z 04005KT 41/11 A298 RMK A01 T04070106  RH  017%=      5-min Rain = 0
KBY1 132032Z 03005KT 41/11 A298 RMK A01 T04060107  RH  017%=      5-min Rain = 0
KBY1 132033Z 34006KT 41/11 A298 RMK A01 T04070111  RH  017%=      5-min Rain = 0
KBY1 132034Z 35010KT 41/11 A298 RMK A01 T04110113  RH  017%=      5-min Rain = 0
KBY1 132035Z 36007KT 41/11 A298 RMK A01 T04120113  RH  017%=      5-min Rain = 0
KBY1 132036Z 01009KT 41/11 A298 RMK A01 T04130112  RH  017%=      5-min Rain = 0
KBY1 132037Z 30006KT 41/11 A298 RMK A01 T04120114  RH  017%=      5-min Rain = 0
KBY1 132038Z 29006KT 42/12 A298 RMK A01 T04150115  RH  017%=      5-min Rain = 0
KBY1 132039Z 33007G13KT 42/12 A298 RMK A01 T04170116  RH  017%=      5-min Rain = 0
KBY1 132040Z 02004KT 42/12 A298 RMK A01 T04200115  RH  016%=      5-min Rain = 0
KBY1 132041Z 30008KT 42/11 A298 RMK A01 T04190111  RH  016%=      5-min Rain = 0
KBY1 132042Z 31010KT 42/11 A298 RMK A01 T04160109  RH  016%=      5-min Rain = 0
KBY1 132043Z 31010KT 42/11 A298 RMK A01 T04160107  RH  016%=      5-min Rain = 0
KBY1 132044Z 31009KT 42/11 A2979 RMK A01 T04160109  RH  016%=      5-min Rain = 0
KBY1 132045Z 32009KT 42/11 A2979 RMK A01 T04150110  RH  016%=      5-min Rain = 0
KBY1 132046Z 32009KT 42/11 A2979 RMK A01 T04150111  RH  017%=      5-min Rain = 0
KBY1 132047Z 30006KT 42/11 A2979 RMK A01 T04160114  RH  017%=      5-min Rain = 0
KBY1 132048Z 26007KT 42/11 A2979 RMK A01 T04170107  RH  016%=      5-min Rain = 0
KBY1 132049Z 26007KT 41/11 A2979 RMK A01 T04130106  RH  016%=      5-min Rain = 0
KBY1 132050Z 24005KT 41/11 A2979 RMK A01 T04100105  RH  016%=      5-min Rain = 0
KBY1 132051Z 25003KT 41/11 A2979 RMK A01 T04080107  RH  017%=      5-min Rain = 0
KBY1 132052Z 31008KT 41/11 A2979 RMK A01 T04110112  RH  017%=      5-min Rain = 0
KBY1 132053Z 31008KT 42/11 A2979 RMK A01 T04150112  RH  017%=      5-min Rain = 0
KBY1 132054Z 31009KT 41/11 A2979 RMK A01 T04140111  RH  017%=      5-min Rain = 0
KBY1 132055Z 30009KT 41/11 A2979 RMK A01 T04120111  RH  017%=      5-min Rain = 0
KBY1 132056Z 30007KT 41/11 A2979 RMK A01 T04090111  RH  017%=      5-min Rain = 0
KBY1 132057Z 29004KT 41/11 A2979 RMK A01 T04080112  RH  017%=      5-min Rain = 0
KBY1 132058Z 29004KT 41/11 A2979 RMK A01 T04090111  RH  017%=      5-min Rain = 0
KBY1 132059Z 30003KT 41/11 A2979 RMK A01 T04090108  RH  017%=      5-min Rain = 0
KBY1 132100Z 24002KT 41/11 A2979 RMK A01 T04070108  RH  017%=      5-min Rain = 0
KBY1 132101Z 01001KT 41/11 A2979 RMK A01 T04080109  RH  017%=      5-min Rain = 0
KBY1 132102Z 03004KT 41/11 A2979 RMK A01 T04100111  RH  017%=      5-min Rain = 0
KBY1 132103Z 04005KT 41/11 A2979 RMK A01 T04110110  RH  017%=      5-min Rain = 0
KBY1 132104Z 06003KT 41/11 A2978 RMK A01 T04100110  RH  017%=      5-min Rain = 0
KBY1 132105Z 08003KT 41/11 A2978 RMK A01 T04100111  RH  017%=      5-min Rain = 0
KBY1 132106Z 06004KT 41/11 A2978 RMK A01 T04100112  RH  017%=      5-min Rain = 0
KBY1 132107Z 05004KT 41/11 A2978 RMK A01 T04110109  RH  017%=      5-min Rain = 0
KBY1 132108Z 03003KT 41/11 A2978 RMK A01 T04100110  RH  017%=      5-min Rain = 0
KBY1 132109Z 05006KT 41/11 A2978 RMK A01 T04100110  RH  017%=      5-min Rain = 0
KBY1 132110Z 03008KT 41/11 A2978 RMK A01 T04110109  RH  017%=      5-min Rain = 0
KBY1 132111Z 01006KT 41/11 A2978 RMK A01 T04130107  RH  016%=      5-min Rain = 0
KBY1 132112Z 03006KT 41/11 A2978 RMK A01 T04130110  RH  017%=      5-min Rain = 0
KBY1 132113Z 06003KT 41/11 A2978 RMK A01 T04120108  RH  016%=      5-min Rain = 0
KBY1 132114Z 03003KT 41/11 A2978 RMK A01 T04110111  RH  017%=      5-min Rain = 0
KBY1 132115Z 34005KT 41/11 A2978 RMK A01 T04140111  RH  017%=      5-min Rain = 0
KBY1 132116Z 32006KT 42/11 A2978 RMK A01 T04160111  RH  016%=      5-min Rain = 0
KBY1 132117Z 31007KT 42/11 A2978 RMK A01 T04180106  RH  016%=      5-min Rain = 0
KBY1 132118Z 31008KT 42/11 A2978 RMK A01 T04180105  RH  016%=      5-min Rain = 0
KBY1 132119Z 31008KT 42/11 A2978 RMK A01 T04180105  RH  016%=      5-min Rain = 0
KBY1 132120Z 31004KT 42/10 A2978 RMK A01 T04170103  RH  015%=      5-min Rain = 0
KBY1 132121Z 33003KT 41/10 A2978 RMK A01 T04140104  RH  016%=      5-min Rain = 0
KBY1 132122Z 35005KT 41/11 A2978 RMK A01 T04140107  RH  016%=      5-min Rain = 0
KBY1 132123Z 34006KT 42/11 A2978 RMK A01 T04160108  RH  016%=      5-min Rain = 0
KBY1 132124Z 01006KT 42/11 A2978 RMK A01 T04170105  RH  016%=      5-min Rain = 0
KBY1 132125Z 03004KT 41/10 A2977 RMK A01 T04140100  RH  015%=      5-min Rain = 0
KBY1 132126Z 01004KT 41/10 A2977 RMK A01 T04120103  RH  016%=      5-min Rain = 0
KBY1 132127Z 03007KT 41/10 A2977 RMK A01 T04110104  RH  016%=      5-min Rain = 0
KBY1 132128Z 36006KT 41/10 A2977 RMK A01 T04110104  RH  016%=      5-min Rain = 0
KBY1 132129Z 32006KT 41/11 A2977 RMK A01 T04100105  RH  016%=      5-min Rain = 0
KBY1 132130Z 02006KT 41/11 A2977 RMK A01 T04100106  RH  016%=      5-min Rain = 0
KBY1 132131Z 06006KT 41/10 A2977 RMK A01 T04110103  RH  016%=      5-min Rain = 0
KBY1 132132Z 05002KT 41/10 A2977 RMK A01 T04080101  RH  016%=      5-min Rain = 0
KBY1 132133Z 01002KT 41/10 A2977 RMK A01 T04060101  RH  016%=      5-min Rain = 0
KBY1 132134Z 32003KT 41/10 A2977 RMK A01 T04060102  RH  016%=      5-min Rain = 0
KBY1 132135Z 27005KT 41/10 A2977 RMK A01 T04080100  RH  016%=      5-min Rain = 0
KBY1 132136Z 30005KT 41/10 A2977 RMK A01 T04100101  RH  016%=      5-min Rain = 0
KBY1 132137Z 02006KT 41/10 A2977 RMK A01 T04110102  RH  016%=      5-min Rain = 0
KBY1 132138Z 02007KT 41/10 A2977 RMK A01 T04130102  RH  016%=      5-min Rain = 0
KBY1 132139Z 34006KT 42/10 A2977 RMK A01 T04150102  RH  016%=      5-min Rain = 0
KBY1 132140Z 34005KT 42/10 A2977 RMK A01 T04160099  RH  015%=      5-min Rain = 0
KBY1 132141Z 00006KT 42/10 A2977 RMK A01 T04160099  RH  015%=      5-min Rain = 0
KBY1 132142Z 34006KT 41/10 A2977 RMK A01 T04140100  RH  015%=      5-min Rain = 0
KBY1 132143Z 31006KT 42/10 A2977 RMK A01 T04160102  RH  016%=      5-min Rain = 0
KBY1 132144Z 30006KT 42/10 A2977 RMK A01 T04180100  RH  015%=      5-min Rain = 0
KBY1 132145Z 29004KT 42/10 A2977 RMK A01 T04170097  RH  015%=      5-min Rain = 0
KBY1 132146Z 27004KT 42/10 A2977 RMK A01 T04160097  RH  015%=      5-min Rain = 0
KBY1 132147Z 26003KT 42/10 A2976 RMK A01 T04160097  RH  015%=      5-min Rain = 0
KBY1 132148Z 24003KT 42/10 A2976 RMK A01 T04180099  RH  015%=      5-min Rain = 0
KBY1 132149Z 22004KT 42/10 A2976 RMK A01 T04190099  RH  015%=      5-min Rain = 0
KBY1 132150Z 25003KT 42/10 A2976 RMK A01 T04200098  RH  015%=      5-min Rain = 0
KBY1 132151Z 34002KT 42/10 A2976 RMK A01 T04200097  RH  015%=      5-min Rain = 0
KBY1 132152Z 34004KT 42/10 A2976 RMK A01 T04210098  RH  015%=      5-min Rain = 0
KBY1 132153Z 02006KT 42/10 A2976 RMK A01 T04230100  RH  015%=      5-min Rain = 0
KBY1 132154Z 01005KT 42/10 A2976 RMK A01 T04220098  RH  015%=      5-min Rain = 0
KBY1 132155Z 33004KT 42/10 A2976 RMK A01 T04210098  RH  015%=      5-min Rain = 0
KBY1 132156Z 33005KT 42/09 A2976 RMK A01 T04230094  RH  014%=      5-min Rain = 0
KBY1 132157Z 35004KT 42/10 A2976 RMK A01 T04240096  RH  014%=      5-min Rain = 0
KBY1 132158Z 32003KT 42/10 A2976 RMK A01 T04230096  RH  014%=      5-min Rain = 0
KBY1 132159Z 00002KT 42/10 A2976 RMK A01 T04230096  RH  014%=      5-min Rain = 0
KBY1 132200Z 03004KT 43/10 A2976 RMK A01 T04250099  RH  014%=      5-min Rain = 0
KBY1 132201Z 03007KT 43/10 A2976 RMK A01 T04250097  RH  014%=      5-min Rain = 0
KBY1 132202Z 03007KT 42/10 A2976 RMK A01 T04230099  RH  015%=      5-min Rain = 0
KBY1 132203Z 03006KT 42/09 A2976 RMK A01 T04230093  RH  014%=      5-min Rain = 0
KBY1 132204Z 02004KT 42/09 A2976 RMK A01 T04200094  RH  014%=      5-min Rain = 0
KBY1 132205Z 06004KT 42/10 A2976 RMK A01 T04190096  RH  015%=      5-min Rain = 0
KBY1 132206Z 05006KT 42/10 A2975 RMK A01 T04190101  RH  015%=      5-min Rain = 0
KBY1 132207Z 05007KT 42/09 A2975 RMK A01 T04200093  RH  014%=      5-min Rain = 0
KBY1 132208Z 08006KT 42/10 A2975 RMK A01 T04200095  RH  014%=      5-min Rain = 0
KBY1 132209Z 12004KT 42/09 A2975 RMK A01 T04220094  RH  014%=      5-min Rain = 0
KBY1 132210Z 13004KT 42/09 A2975 RMK A01 T04220093  RH  014%=      5-min Rain = 0
KBY1 132211Z 15006KT 42/09 A2975 RMK A01 T04200091  RH  014%=      5-min Rain = 0
KBY1 132212Z 18004KT 42/09 A2975 RMK A01 T04180086  RH  014%=      5-min Rain = 0
KBY1 132213Z 14004KT 42/09 A2975 RMK A01 T04160089  RH  014%=      5-min Rain = 0
KBY1 132214Z 15003KT 42/09 A2975 RMK A01 T04170088  RH  014%=      5-min Rain = 0
KBY1 132215Z 12003KT 42/09 A2975 RMK A01 T04180089  RH  014%=      5-min Rain = 0
KBY1 132216Z 12002KT 42/09 A2975 RMK A01 T04190090  RH  014%=      5-min Rain = 0
KBY1 132217Z 10006KT 42/09 A2975 RMK A01 T04200091  RH  014%=      5-min Rain = 0
KBY1 132218Z 09006KT 42/09 A2975 RMK A01 T04220093  RH  014%=      5-min Rain = 0
KBY1 132219Z 08006KT 43/10 A2975 RMK A01 T04250095  RH  014%=      5-min Rain = 0
KBY1 132220Z 08007KT 43/10 A2975 RMK A01 T04280095  RH  014%=      5-min Rain = 0
KBY1 132221Z 08007KT 43/09 A2975 RMK A01 T04270091  RH  014%=      5-min Rain = 0
KBY1 132222Z 09006KT 42/09 A2975 RMK A01 T04230093  RH  014%=      5-min Rain = 0
KBY1 132223Z 10005KT 42/09 A2975 RMK A01 T04210090  RH  014%=      5-min Rain = 0
KBY1 132224Z 10004KT 42/09 A2975 RMK A01 T04190091  RH  014%=      5-min Rain = 0
KBY1 132225Z 07005KT 42/10 A2975 RMK A01 T04180096  RH  015%=      5-min Rain = 0
KBY1 132226Z 07005KT 42/10 A2975 RMK A01 T04200097  RH  015%=      5-min Rain = 0
KBY1 132227Z 06005KT 42/10 A2975 RMK A01 T04200097  RH  015%=      5-min Rain = 0
KBY1 132228Z 05005KT 42/10 A2975 RMK A01 T04220099  RH  015%=      5-min Rain = 0
KBY1 132229Z 08007KT 43/10 A2974 RMK A01 T04250098  RH  014%=      5-min Rain = 0
KBY1 132230Z 06004KT 42/09 A2974 RMK A01 T04220094  RH  014%=      5-min Rain = 0
KBY1 132231Z 05003KT 42/09 A2974 RMK A01 T04180094  RH  014%=      5-min Rain = 0
KBY1 132232Z 02006KT 42/09 A2974 RMK A01 T04160093  RH  015%=      5-min Rain = 0
KBY1 132233Z 01004KT 41/09 A2974 RMK A01 T04140091  RH  015%=      5-min Rain = 0
KBY1 132234Z 03005KT 41/09 A2974 RMK A01 T04120092  RH  015%=      5-min Rain = 0
KBY1 132235Z 03005KT 41/09 A2974 RMK A01 T04120090  RH  015%=      5-min Rain = 0
KBY1 132236Z 04005KT 41/09 A2974 RMK A01 T04110091  RH  015%=      5-min Rain = 0
KBY1 132237Z 03005KT 41/09 A2974 RMK A01 T04100090  RH  015%=      5-min Rain = 0
KBY1 132238Z 03004KT 41/09 A2974 RMK A01 T04100088  RH  015%=      5-min Rain = 0
KBY1 132239Z 02004KT 41/09 A2974 RMK A01 T04100089  RH  015%=      5-min Rain = 0
KBY1 132240Z 02005KT 41/09 A2974 RMK A01 T04100090  RH  015%=      5-min Rain = 0
KBY1 132241Z 00003KT 41/09 A2974 RMK A01 T04100089  RH  015%=      5-min Rain = 0
KBY1 132242Z 00004KT 41/09 A2974 RMK A01 T04100089  RH  015%=      5-min Rain = 0
KBY1 132243Z 00004KT 41/09 A2974 RMK A01 T04110090  RH  015%=      5-min Rain = 0
KBY1 132244Z 36005KT 41/09 A2974 RMK A01 T04130091  RH  015%=      5-min Rain = 0
KBY1 132245Z 36004KT 41/09 A2974 RMK A01 T04140089  RH  014%=      5-min Rain = 0
KBY1 132246Z 35002KT 42/09 A2974 RMK A01 T04150089  RH  014%=      5-min Rain = 0
KBY1 132247Z 34002KT 42/09 A2974 RMK A01 T04150089  RH  014%=      5-min Rain = 0
KBY1 132248Z 32001KT 42/09 A2974 RMK A01 T04160088  RH  014%=      5-min Rain = 0
KBY1 132249Z 07002KT 42/09 A2974 RMK A01 T04160093  RH  015%=      5-min Rain = 0
KBY1 132250Z 08005KT 42/10 A2974 RMK A01 T04160098  RH  015%=      5-min Rain = 0
KBY1 132251Z 07005KT 42/10 A2974 RMK A01 T04170100  RH  015%=      5-min Rain = 0
KBY1 132252Z 08005KT 42/10 A2974 RMK A01 T04160102  RH  016%=      5-min Rain = 0
KBY1 132253Z 09006KT 42/09 A2974 RMK A01 T04160092  RH  015%=      5-min Rain = 0
KBY1 132254Z 08005KT 42/09 A2974 RMK A01 T04170091  RH  014%=      5-min Rain = 0
KBY1 132255Z 08005KT 42/09 A2974 RMK A01 T04160091  RH  014%=      5-min Rain = 0
KBY1 132256Z 08004KT 42/09 A2974 RMK A01 T04170092  RH  014%=      5-min Rain = 0
KBY1 132257Z 06005KT 42/10 A2974 RMK A01 T04190097  RH  015%=      5-min Rain = 0
KBY1 132258Z 07006KT 42/09 A2974 RMK A01 T04240093  RH  014%=      5-min Rain = 0
KBY1 132259Z 06005KT 42/09 A2974 RMK A01 T04240086  RH  013%=      5-min Rain = 0
KBY1 132300Z 06005KT 42/09 A2974 RMK A01 T04220087  RH  014%=      5-min Rain = 0
KBY1 132301Z 05005KT 42/09 A2974 RMK A01 T04210088  RH  014%=      5-min Rain = 0
KBY1 132302Z 04004KT 42/09 A2974 RMK A01 T04200089  RH  014%=      5-min Rain = 0
KBY1 132303Z 05004KT 42/09 A2974 RMK A01 T04190087  RH  014%=      5-min Rain = 0
KBY1 132304Z 04002KT 42/09 A2974 RMK A01 T04170087  RH  014%=      5-min Rain = 0
KBY1 132305Z 09002KT 42/09 A2974 RMK A01 T04160090  RH  014%=      5-min Rain = 0
KBY1 132306Z 11004KT 42/09 A2973 RMK A01 T04160089  RH  014%=      5-min Rain = 0
KBY1 132307Z 07003KT 42/09 A2973 RMK A01 T04160093  RH  015%=      5-min Rain = 0
KBY1 132308Z 06004KT 42/09 A2973 RMK A01 T04160092  RH  014%=      5-min Rain = 0
KBY1 132309Z 05005KT 42/10 A2973 RMK A01 T04160097  RH  015%=      5-min Rain = 0
KBY1 132310Z 05006KT 42/09 A2973 RMK A01 T04150094  RH  015%=      5-min Rain = 0
KBY1 132311Z 06006KT 41/10 A2973 RMK A01 T04140098  RH  015%=      5-min Rain = 0
KBY1 132312Z 06006KT 41/10 A2973 RMK A01 T04120100  RH  016%=      5-min Rain = 0
KBY1 132313Z 07006KT 41/10 A2973 RMK A01 T04110096  RH  015%=      5-min Rain = 0
KBY1 132314Z 07005KT 41/09 A2973 RMK A01 T04100094  RH  015%=      5-min Rain = 0
KBY1 132315Z 07005KT 41/10 A2973 RMK A01 T04100097  RH  015%=      5-min Rain = 0
KBY1 132316Z 07006KT 41/10 A2973 RMK A01 T04100097  RH  015%=      5-min Rain = 0
KBY1 132317Z 06006KT 41/10 A2973 RMK A01 T04100098  RH  016%=      5-min Rain = 0
KBY1 132318Z 06006KT 41/10 A2973 RMK A01 T04080098  RH  016%=      5-min Rain = 0
KBY1 132319Z 06006KT 41/10 A2973 RMK A01 T04070095  RH  015%=      5-min Rain = 0
KBY1 132320Z 07005KT 41/09 A2973 RMK A01 T04070093  RH  015%=      5-min Rain = 0
KBY1 132321Z 07004KT 41/09 A2973 RMK A01 T04070094  RH  015%=      5-min Rain = 0
KBY1 132322Z 08004KT 41/10 A2973 RMK A01 T04070098  RH  016%=      5-min Rain = 0
KBY1 132323Z 09004KT 41/10 A2973 RMK A01 T04060101  RH  016%=      5-min Rain = 0
KBY1 132324Z 09004KT 41/10 A2973 RMK A01 T04050104  RH  017%=      5-min Rain = 0
KBY1 132325Z 08003KT 40/10 A2973 RMK A01 T04030102  RH  017%=      5-min Rain = 0
KBY1 132326Z 08003KT 40/10 A2973 RMK A01 T04020100  RH  016%=      5-min Rain = 0
KBY1 132327Z 08004KT 40/10 A2973 RMK A01 T04020099  RH  016%=      5-min Rain = 0
KBY1 132328Z 10004KT 40/10 A2973 RMK A01 T04020099  RH  016%=      5-min Rain = 0
KBY1 132329Z 08004KT 40/10 A2973 RMK A01 T04020097  RH  016%=      5-min Rain = 0
KBY1 132330Z 08005KT 40/10 A2973 RMK A01 T04020098  RH  016%=      5-min Rain = 0
KBY1 132331Z 09004KT 40/10 A2974 RMK A01 T04020099  RH  016%=      5-min Rain = 0
KBY1 132332Z 10004KT 40/09 A2974 RMK A01 T04010093  RH  016%=      5-min Rain = 0
KBY1 132333Z 11004KT 40/09 A2974 RMK A01 T04010093  RH  016%=      5-min Rain = 0
KBY1 132334Z 11003KT 40/10 A2974 RMK A01 T04020097  RH  016%=      5-min Rain = 0
KBY1 132335Z 09002KT 40/10 A2974 RMK A01 T04010099  RH  016%=      5-min Rain = 0
KBY1 132336Z 09002KT 40/10 A2974 RMK A01 T04020099  RH  016%=      5-min Rain = 0
KBY1 132337Z 10001KT 40/10 A2974 RMK A01 T04020100  RH  016%=      5-min Rain = 0
KBY1 132338Z 11001KT 40/10 A2974 RMK A01 T04020103  RH  017%=      5-min Rain = 0
KBY1 132339Z 02000KT 40/12 A2974 RMK A01 T04010120  RH  019%=      5-min Rain = 0
KBY1 132340Z 32000KT 40/13 A2974 RMK A01 T04010131  RH  020%=      5-min Rain = 0
KBY1 132341Z 32002KT 40/16 A2974 RMK A01 T03990156  RH  024%=      5-min Rain = 0
KBY1 132342Z 33005KT 39/17 A2974 RMK A01 T03920169  RH  027%=      5-min Rain = 0
KBY1 132343Z 33009KT 38/16 A2974 RMK A01 T03840164  RH  028%=      5-min Rain = 0
KBY1 132344Z 32005KT 37/15 A2974 RMK A01 T03740145  RH  026%=      5-min Rain = 0
KBY1 132345Z 33012G24KT 37/14 A2974 RMK A01 T03660142  RH  026%=      5-min Rain = 0
KBY1 132346Z 33015G24KT 37/12 A2974 RMK A01 T03660118  RH  022%=      5-min Rain = 0
KBY1 132347Z 32014G21KT 37/12 A2974 RMK A01 T03690123  RH  023%=      5-min Rain = 0
KBY1 132348Z 33013KT 36/14 A2974 RMK A01 T03620137  RH  026%=      5-min Rain = 0
KBY1 132349Z 32012G18KT 36/14 A2974 RMK A01 T03550141  RH  028%=      5-min Rain = 0
KBY1 132350Z 33011G17KT 35/14 A2974 RMK A01 T03510141  RH  029%=      5-min Rain = 0
KBY1 132351Z 32018G26KT 35/13 A2974 RMK A01 T03480133  RH  027%=      5-min Rain = 0
KBY1 132352Z 31023G28KT 35/12 A2974 RMK A01 T03510115  RH  024%=      5-min Rain = 0
KBY1 132353Z 30019G26KT 36/11 A2974 RMK A01 T03570112  RH  023%=      5-min Rain = 0
KBY1 132354Z 31022KT 36/11 A2974 RMK A01 T03610108  RH  022%=      5-min Rain = 0
KBY1 132355Z 32017G22KT 36/11 A2975 RMK A01 T03630105  RH  021%=      5-min Rain = 0
KBY1 132356Z 32016KT 37/11 A2975 RMK A01 T03660106  RH  021%=      5-min Rain = 0
KBY1 132357Z 32014KT 37/11 A2975 RMK A01 T03670109  RH  021%=      5-min Rain = 0
KBY1 132358Z 32013G19KT 37/11 A2975 RMK A01 T03660112  RH  022%=      5-min Rain = 0
KBY1 132359Z 32008KT 37/11 A2975 RMK A01 T03660106  RH  021%=      5-min Rain = 0
KBY1 140000Z 31011KT 37/11 A2975 RMK A01 T03690108  RH  021%=      5-min Rain = 0
KBY1 140001Z 33010G17KT 37/12 A2975 RMK A01 T03690116  RH  022%=      5-min Rain = 0
KBY1 140002Z 33018KT 37/11 A2975 RMK A01 T03680105  RH  020%=      5-min Rain = 0
KBY1 140003Z 32014G20KT 37/11 A2975 RMK A01 T03720109  RH  021%=      5-min Rain = 0
KBY1 140004Z 33014G21KT 37/11 A2975 RMK A01 T03720114  RH  021%=      5-min Rain = 0
KBY1 140005Z 34021KT 37/11 A2975 RMK A01 T03690108  RH  021%=      5-min Rain = 0
KBY1 140006Z 33019G28KT 37/12 A2975 RMK A01 T03690117  RH  022%=      5-min Rain = 0
KBY1 140007Z 32024G31KT 36/14 A2975 RMK A01 T03550144  RH  028%=      5-min Rain = 0.01
KBY1 140008Z 32027G32KT 33/14 A2975 RMK A01 T03300142  RH  032%=      5-min Rain = 0.03
KBY1 140009Z 33025G36KT 31/15 A2976 RMK A01 T03130146  RH  036%=      5-min Rain = 0.03
KBY1 140010Z 33028G35KT 30/14 A2976 RMK A01 T03030142  RH  037%=      5-min Rain = 0.02
KBY1 140011Z 35031KT 30/14 A2977 RMK A01 T02970143  RH  039%=      5-min Rain = 0.03
KBY1 140012Z 01029G34KT 29/15 A2977 RMK A01 T02910145  RH  041%=      5-min Rain = 0.04
KBY1 140013Z 02025G34KT 28/13 A2976 RMK A01 T02820127  RH  038%=      5-min Rain = 0.01
KBY1 140014Z 02026G31KT 30/14 A2976 RMK A01 T02960135  RH  037%=      5-min Rain = 0.01
KBY1 140015Z 03027KT 30/14 A2977 RMK A01 T03000141  RH  038%=      5-min Rain = 0.01
KBY1 140016Z 03026G31KT 30/14 A2976 RMK A01 T02970136  RH  037%=      5-min Rain = 0.01
KBY1 140017Z 04026G33KT 29/14 A2976 RMK A01 T02920140  RH  040%=      5-min Rain = 0.01
KBY1 140018Z 04028KT 30/13 A2976 RMK A01 T02990129  RH  035%=      5-min Rain = 0
KBY1 140019Z 04022G29KT 31/13 A2976 RMK A01 T03100130  RH  033%=      5-min Rain = 0.01
KBY1 140020Z 05019KT 31/14 A2975 RMK A01 T03100135  RH  034%=      5-min Rain = 0
KBY1 140021Z 05019G27KT 31/14 A2975 RMK A01 T03080140  RH  036%=      5-min Rain = 0
KBY1 140022Z 06027G35KT 30/14 A2975 RMK A01 T03030140  RH  037%=      5-min Rain = 0
KBY1 140023Z 07029G35KT 30/14 A2975 RMK A01 T03010137  RH  037%=      5-min Rain = 0.01
KBY1 140024Z 07025G33KT 30/13 A2975 RMK A01 T03020134  RH  036%=      5-min Rain = 0
KBY1 140025Z 07020KT 31/13 A2975 RMK A01 T03050132  RH  035%=      5-min Rain = 0
KBY1 140026Z 07024G29KT 31/13 A2975 RMK A01 T03080129  RH  033%=      5-min Rain = 0
KBY1 140027Z 07019G24KT 31/13 A2976 RMK A01 T03130134  RH  034%=      5-min Rain = 0
KBY1 140028Z 07020KT 31/13 A2976 RMK A01 T03130133  RH  033%=      5-min Rain = 0
KBY1 140029Z 07014G19KT 32/12 A2976 RMK A01 T03170121  RH  030%=      5-min Rain = 0
KBY1 140030Z 06015KT 32/13 A2976 RMK A01 T03230129  RH  031%=      5-min Rain = 0
KBY1 140031Z 07014KT 33/13 A2976 RMK A01 T03250125  RH  030%=      5-min Rain = 0
KBY1 140032Z 07013G19KT 33/13 A2976 RMK A01 T03290125  RH  029%=      5-min Rain = 0
KBY1 140033Z 03007KT 33/13 A2977 RMK A01 T03290133  RH  030%=      5-min Rain = 0
KBY1 140034Z 35008G16KT 33/14 A2979 RMK A01 T03270135  RH  031%=      5-min Rain = 0
KBY1 140035Z 30017G22KT 33/14 A2981 RMK A01 T03260135  RH  032%=      5-min Rain = 0
KBY1 140036Z 31013G19KT 33/13 A2981 RMK A01 T03260133  RH  031%=      5-min Rain = 0
KBY1 140037Z 33014KT 32/15 A2982 RMK A01 T03240146  RH  034%=      5-min Rain = 0
KBY1 140038Z 32013G19KT 32/15 A2982 RMK A01 T03180150  RH  036%=      5-min Rain = 0
KBY1 140039Z 32016KT 32/15 A2982 RMK A01 T03150147  RH  036%=      5-min Rain = 0
KBY1 140040Z 32014KT 31/15 A2982 RMK A01 T03130150  RH  037%=      5-min Rain = 0
KBY1 140041Z 33012G17KT 31/15 A2982 RMK A01 T03110152  RH  038%=      5-min Rain = 0
KBY1 140042Z 34011KT 31/16 A2982 RMK A01 T03100155  RH  039%=      5-min Rain = 0
KBY1 140043Z 34013KT 31/15 A2983 RMK A01 T03080153  RH  039%=      5-min Rain = 0
KBY1 140044Z 35011KT 31/15 A2983 RMK A01 T03070154  RH  040%=      5-min Rain = 0
KBY1 140045Z 35013KT 31/15 A2983 RMK A01 T03060154  RH  040%=      5-min Rain = 0
KBY1 140046Z 35014G20KT 31/15 A2982 RMK A01 T03050151  RH  039%=      5-min Rain = 0
KBY1 140047Z 36013G18KT 30/15 A2982 RMK A01 T03040153  RH  040%=      5-min Rain = 0
KBY1 140048Z 00013KT 30/15 A2982 RMK A01 T03030151  RH  040%=      5-min Rain = 0
KBY1 140049Z 00013G19KT 30/15 A2982 RMK A01 T03020152  RH  040%=      5-min Rain = 0
KBY1 140050Z 01012G17KT 30/16 A2982 RMK A01 T03000157  RH  042%=      5-min Rain = 0
KBY1 140051Z 00015KT 30/15 A2982 RMK A01 T02980151  RH  041%=      5-min Rain = 0
KBY1 140052Z 01012KT 30/16 A2981 RMK A01 T02970155  RH  042%=      5-min Rain = 0
KBY1 140053Z 02013KT 30/15 A2981 RMK A01 T02960154  RH  042%=      5-min Rain = 0
KBY1 140054Z 01011KT 30/15 A2981 RMK A01 T02960153  RH  042%=      5-min Rain = 0
KBY1 140055Z 01012KT 30/15 A2981 RMK A01 T02970154  RH  042%=      5-min Rain = 0
KBY1 140056Z 01011KT 30/15 A2981 RMK A01 T02990146  RH  040%=      5-min Rain = 0
KBY1 140057Z 00011KT 30/15 A2981 RMK A01 T03010147  RH  039%=      5-min Rain = 0
KBY1 140058Z 00009G14KT 30/15 A2981 RMK A01 T03030152  RH  040%=      5-min Rain = 0
KBY1 140059Z 01009KT 30/15 A2981 RMK A01 T03020153  RH  040%=      5-min Rain = 0
KBY1 140100Z 36008KT 30/15 A2981 RMK A01 T03010153  RH  041%=      5-min Rain = 0
KBY1 140101Z 36009KT 30/15 A2982 RMK A01 T03000154  RH  041%=      5-min Rain = 0
KBY1 140102Z 34010KT 30/16 A2982 RMK A01 T02980156  RH  042%=      5-min Rain = 0
KBY1 140103Z 36010KT 30/15 A2982 RMK A01 T02980151  RH  041%=      5-min Rain = 0
KBY1 140104Z 01009KT 30/15 A2982 RMK A01 T02980149  RH  040%=      5-min Rain = 0
KBY1 140105Z 02008KT 30/15 A2981 RMK A01 T03000148  RH  040%=      5-min Rain = 0
KBY1 140106Z 02006KT 30/15 A2981 RMK A01 T03010148  RH  039%=      5-min Rain = 0
KBY1 140107Z 03008KT 30/15 A2981 RMK A01 T03020152  RH  040%=      5-min Rain = 0
KBY1 140108Z 04012KT 30/15 A2981 RMK A01 T03010150  RH  040%=      5-min Rain = 0
KBY1 140109Z 04009KT 30/14 A2981 RMK A01 T03020144  RH  038%=      5-min Rain = 0
KBY1 140110Z 04010KT 30/15 A2981 RMK A01 T03020150  RH  040%=      5-min Rain = 0
KBY1 140111Z 03011KT 30/15 A2981 RMK A01 T03010149  RH  040%=      5-min Rain = 0
KBY1 140112Z 04008KT 30/15 A2981 RMK A01 T03010152  RH  040%=      5-min Rain = 0
KBY1 140113Z 03011KT 30/15 A2981 RMK A01 T03000153  RH  041%=      5-min Rain = 0
KBY1 140114Z 03010KT 30/15 A2981 RMK A01 T02990153  RH  041%=      5-min Rain = 0
KBY1 140115Z 03010KT 30/15 A2981 RMK A01 T02980153  RH  041%=      5-min Rain = 0
KBY1 140116Z 03010KT 30/15 A2982 RMK A01 T02970152  RH  041%=      5-min Rain = 0
KBY1 140117Z 03009KT 30/15 A2982 RMK A01 T02970153  RH  042%=      5-min Rain = 0
KBY1 140118Z 03009KT 30/16 A2982 RMK A01 T02970156  RH  042%=      5-min Rain = 0
KBY1 140119Z 04008KT 30/16 A2982 RMK A01 T02970155  RH  042%=      5-min Rain = 0
KBY1 140120Z 04007KT 30/16 A2982 RMK A01 T02980157  RH  042%=      5-min Rain = 0
KBY1 140121Z 04006KT 30/16 A2982 RMK A01 T02970156  RH  042%=      5-min Rain = 0
KBY1 140122Z 04005KT 30/16 A2982 RMK A01 T02970158  RH  043%=      5-min Rain = 0
KBY1 140123Z 05005KT 30/16 A2983 RMK A01 T02970157  RH  043%=      5-min Rain = 0
KBY1 140124Z 05004KT 30/16 A2983 RMK A01 T02970157  RH  043%=      5-min Rain = 0
KBY1 140125Z 06003KT 30/16 A2983 RMK A01 T02970159  RH  043%=      5-min Rain = 0
KBY1 140126Z 09002KT 30/17 A2983 RMK A01 T02970165  RH  045%=      5-min Rain = 0
KBY1 140127Z 16002KT 30/17 A2983 RMK A01 T02970170  RH  046%=      5-min Rain = 0
KBY1 140128Z 17004KT 30/17 A2983 RMK A01 T02950174  RH  048%=      5-min Rain = 0
KBY1 140129Z 17004KT 29/17 A2983 RMK A01 T02930166  RH  046%=      5-min Rain = 0
KBY1 140130Z 16004KT 29/17 A2983 RMK A01 T02930170  RH  047%=      5-min Rain = 0
KBY1 140131Z 15004KT 29/17 A2983 RMK A01 T02920168  RH  047%=      5-min Rain = 0
KBY1 140132Z 13004KT 29/17 A2984 RMK A01 T02910170  RH  048%=      5-min Rain = 0
KBY1 140133Z 13004KT 29/17 A2984 RMK A01 T02910165  RH  047%=      5-min Rain = 0
KBY1 140134Z 14007KT 29/16 A2984 RMK A01 T02910164  RH  046%=      5-min Rain = 0
KBY1 140135Z 15007KT 29/17 A2984 RMK A01 T02910170  RH  048%=      5-min Rain = 0
KBY1 140136Z 18006KT 29/17 A2984 RMK A01 T02910168  RH  047%=      5-min Rain = 0
KBY1 140137Z 22006KT 29/17 A2984 RMK A01 T02910170  RH  048%=      5-min Rain = 0
KBY1 140138Z 25007KT 29/18 A2985 RMK A01 T02910176  RH  050%=      5-min Rain = 0
KBY1 140139Z 24008KT 29/17 A2985 RMK A01 T02900172  RH  049%=      5-min Rain = 0
KBY1 140140Z 23008KT 29/17 A2985 RMK A01 T02900165  RH  047%=      5-min Rain = 0
KBY1 140141Z 23009KT 29/17 A2985 RMK A01 T02900165  RH  047%=      5-min Rain = 0
KBY1 140142Z 23006KT 29/16 A2985 RMK A01 T02900162  RH  046%=      5-min Rain = 0
KBY1 140143Z 21005KT 29/16 A2985 RMK A01 T02900163  RH  046%=      5-min Rain = 0
KBY1 140144Z 20005KT 29/16 A2985 RMK A01 T02900162  RH  046%=      5-min Rain = 0
KBY1 140145Z 18006KT 29/16 A2985 RMK A01 T02900160  RH  045%=      5-min Rain = 0
KBY1 140146Z 16007KT 29/16 A2985 RMK A01 T02910157  RH  044%=      5-min Rain = 0
KBY1 140147Z 15008KT 29/17 A2985 RMK A01 T02920165  RH  046%=      5-min Rain = 0
KBY1 140148Z 14010KT 29/17 A2985 RMK A01 T02920166  RH  047%=      5-min Rain = 0
KBY1 140149Z 15010KT 29/16 A2985 RMK A01 T02920162  RH  045%=      5-min Rain = 0
KBY1 140150Z 16010KT 29/16 A2985 RMK A01 T02930161  RH  045%=      5-min Rain = 0
KBY1 140151Z 16009KT 29/16 A2985 RMK A01 T02930161  RH  045%=      5-min Rain = 0
KBY1 140152Z 16008KT 29/16 A2985 RMK A01 T02930164  RH  046%=      5-min Rain = 0
KBY1 140153Z 15007KT 29/16 A2985 RMK A01 T02930163  RH  046%=      5-min Rain = 0
KBY1 140154Z 15007KT 29/16 A2985 RMK A01 T02920162  RH  045%=      5-min Rain = 0
KBY1 140155Z 15007KT 29/16 A2985 RMK A01 T02930161  RH  045%=      5-min Rain = 0
KBY1 140156Z 15006KT 29/16 A2985 RMK A01 T02920160  RH  045%=      5-min Rain = 0
KBY1 140157Z 16007KT 29/16 A2985 RMK A01 T02930161  RH  045%=      5-min Rain = 0
KBY1 140158Z 14006KT 29/16 A2985 RMK A01 T02930161  RH  045%=      5-min Rain = 0
KBY1 140159Z 13006KT 29/16 A2984 RMK A01 T02940163  RH  045%=      5-min Rain = 0
KBY1 140200Z 13007KT 29/16 A2984 RMK A01 T02940159  RH  044%=      5-min Rain = 0
KBY1 140201Z 13008KT 30/16 A2984 RMK A01 T02950156  RH  043%=      5-min Rain = 0
KBY1 140202Z 12007KT 30/15 A2984 RMK A01 T02970154  RH  042%=      5-min Rain = 0
KBY1 140203Z 13008KT 30/15 A2984 RMK A01 T02990150  RH  040%=      5-min Rain = 0
KBY1 140204Z 13007KT 30/16 A2985 RMK A01 T03020155  RH  041%=      5-min Rain = 0
KBY1 140205Z 14006KT 30/16 A2985 RMK A01 T03020158  RH  042%=      5-min Rain = 0
KBY1 140206Z 15006KT 30/16 A2985 RMK A01 T03010159  RH  042%=      5-min Rain = 0
KBY1 140207Z 15006KT 30/16 A2985 RMK A01 T03000157  RH  042%=      5-min Rain = 0
KBY1 140208Z 14006KT 30/16 A2985 RMK A01 T03000157  RH  042%=      5-min Rain = 0
KBY1 140209Z 13005KT 30/15 A2985 RMK A01 T03000152  RH  041%=      5-min Rain = 0
KBY1 140210Z 11004KT 30/16 A2984 RMK A01 T03000157  RH  042%=      5-min Rain = 0
KBY1 140211Z 10004KT 30/16 A2984 RMK A01 T03000160  RH  043%=      5-min Rain = 0
KBY1 140212Z 09005KT 30/16 A2984 RMK A01 T02990163  RH  044%=      5-min Rain = 0
KBY1 140213Z 10005KT 30/16 A2984 RMK A01 T02980163  RH  044%=      5-min Rain = 0
KBY1 140214Z 09005KT 30/17 A2984 RMK A01 T02960165  RH  045%=      5-min Rain = 0
KBY1 140215Z 08006KT 29/17 A2984 RMK A01 T02940169  RH  047%=      5-min Rain = 0
KBY1 140216Z 08006KT 29/17 A2983 RMK A01 T02930171  RH  048%=      5-min Rain = 0
KBY1 140217Z 08006KT 29/17 A2983 RMK A01 T02920171  RH  048%=      5-min Rain = 0
KBY1 140218Z 07007KT 29/17 A2983 RMK A01 T02920167  RH  047%=      5-min Rain = 0
KBY1 140219Z 07006KT 29/16 A2983 RMK A01 T02930164  RH  046%=      5-min Rain = 0
KBY1 140220Z 07006KT 29/16 A2983 RMK A01 T02940162  RH  045%=      5-min Rain = 0
KBY1 140221Z 07006KT 29/16 A2983 RMK A01 T02940162  RH  045%=      5-min Rain = 0
KBY1 140222Z 07006KT 30/16 A2983 RMK A01 T02950161  RH  044%=      5-min Rain = 0
KBY1 140223Z 07007KT 30/16 A2983 RMK A01 T02950160  RH  044%=      5-min Rain = 0
KBY1 140224Z 07007KT 30/16 A2982 RMK A01 T02950161  RH  044%=      5-min Rain = 0
KBY1 140225Z 08008KT 30/16 A2982 RMK A01 T02960160  RH  044%=      5-min Rain = 0
KBY1 140226Z 08008KT 30/16 A2982 RMK A01 T02960160  RH  044%=      5-min Rain = 0
KBY1 140227Z 09008KT 30/16 A2982 RMK A01 T02950158  RH  043%=      5-min Rain = 0
KBY1 140228Z 08007KT 30/16 A2982 RMK A01 T02950162  RH  044%=      5-min Rain = 0
KBY1 140229Z 08007KT 29/16 A2982 RMK A01 T02940160  RH  044%=      5-min Rain = 0
KBY1 140230Z 07007KT 29/16 A2982 RMK A01 T02940163  RH  045%=      5-min Rain = 0
KBY1 140231Z 08007KT 29/17 A2982 RMK A01 T02940165  RH  046%=      5-min Rain = 0
KBY1 140232Z 08007KT 29/17 A2982 RMK A01 T02930166  RH  046%=      5-min Rain = 0
KBY1 140233Z 08007KT 29/16 A2982 RMK A01 T02920163  RH  046%=      5-min Rain = 0
KBY1 140234Z 09008KT 29/16 A2982 RMK A01 T02920162  RH  045%=      5-min Rain = 0
KBY1 140235Z 08007KT 29/16 A2982 RMK A01 T02920162  RH  045%=      5-min Rain = 0
KBY1 140236Z 09007KT 29/16 A2982 RMK A01 T02920162  RH  046%=      5-min Rain = 0
KBY1 140237Z 09007KT 29/17 A2982 RMK A01 T02920166  RH  047%=      5-min Rain = 0
KBY1 140238Z 10006KT 29/17 A2982 RMK A01 T02910167  RH  047%=      5-min Rain = 0
KBY1 140239Z 12005KT 29/17 A2982 RMK A01 T02910169  RH  048%=      5-min Rain = 0
KBY1 140240Z 11005KT 29/17 A2982 RMK A01 T02900168  RH  048%=      5-min Rain = 0
KBY1 140241Z 09005KT 29/17 A2982 RMK A01 T02900169  RH  048%=      5-min Rain = 0
KBY1 140242Z 08006KT 29/17 A2982 RMK A01 T02890168  RH  048%=      5-min Rain = 0
KBY1 140243Z 07005KT 29/17 A2982 RMK A01 T02880170  RH  049%=      5-min Rain = 0
KBY1 140244Z 07006KT 29/17 A2982 RMK A01 T02880170  RH  049%=      5-min Rain = 0
KBY1 140245Z 08006KT 29/17 A2982 RMK A01 T02880168  RH  048%=      5-min Rain = 0
KBY1 140246Z 08006KT 29/17 A2983 RMK A01 T02880168  RH  048%=      5-min Rain = 0
KBY1 140247Z 08005KT 29/16 A2983 RMK A01 T02890164  RH  047%=      5-min Rain = 0
KBY1 140248Z 08005KT 29/16 A2983 RMK A01 T02900163  RH  046%=      5-min Rain = 0
KBY1 140249Z 08004KT 29/16 A2983 RMK A01 T02910163  RH  046%=      5-min Rain = 0
KBY1 140250Z 07004KT 29/17 A2983 RMK A01 T02910166  RH  047%=      5-min Rain = 0
KBY1 140251Z 06004KT 29/16 A2982 RMK A01 T02910157  RH  044%=      5-min Rain = 0
KBY1 140252Z 05003KT 29/16 A2982 RMK A01 T02920160  RH  045%=      5-min Rain = 0
KBY1 140253Z 06004KT 29/16 A2982 RMK A01 T02930163  RH  045%=      5-min Rain = 0
KBY1 140254Z 07005KT 29/16 A2982 RMK A01 T02940162  RH  045%=      5-min Rain = 0
KBY1 140255Z 05005KT 29/16 A2982 RMK A01 T02940164  RH  045%=      5-min Rain = 0
KBY1 140256Z 05006KT 30/17 A2982 RMK A01 T02950165  RH  046%=      5-min Rain = 0
KBY1 140257Z 06006KT 30/16 A2982 RMK A01 T02950160  RH  044%=      5-min Rain = 0
KBY1 140258Z 06006KT 30/16 A2982 RMK A01 T02960163  RH  045%=      5-min Rain = 0
KBY1 140259Z 06005KT 30/16 A2982 RMK A01 T02960159  RH  044%=      5-min Rain = 0
KBY1 140300Z 06006KT 30/16 A2982 RMK A01 T02970162  RH  044%=      5-min Rain = 0
KBY1 140301Z 06005KT 30/16 A2982 RMK A01 T02970161  RH  044%=      5-min Rain = 0
KBY1 140302Z 06004KT 30/16 A2982 RMK A01 T02970160  RH  043%=      5-min Rain = 0
KBY1 140303Z 06005KT 30/16 A2982 RMK A01 T02970162  RH  044%=      5-min Rain = 0
KBY1 140304Z 06004KT 30/16 A2982 RMK A01 T02970163  RH  044%=      5-min Rain = 0
KBY1 140305Z 06004KT 30/17 A2982 RMK A01 T02960166  RH  045%=      5-min Rain = 0
KBY1 140306Z 06004KT 30/17 A2982 RMK A01 T02960167  RH  046%=      5-min Rain = 0
KBY1 140307Z 06005KT 30/17 A2982 RMK A01 T02950165  RH  045%=      5-min Rain = 0
KBY1 140308Z 06005KT 30/17 A2983 RMK A01 T02950166  RH  046%=      5-min Rain = 0
KBY1 140309Z 05005KT 29/17 A2983 RMK A01 T02940165  RH  046%=      5-min Rain = 0
KBY1 140310Z 06005KT 29/16 A2983 RMK A01 T02940161  RH  045%=      5-min Rain = 0
KBY1 140311Z 06003KT 30/16 A2983 RMK A01 T02950163  RH  045%=      5-min Rain = 0
KBY1 140312Z 06004KT 29/17 A2983 RMK A01 T02940169  RH  047%=      5-min Rain = 0
KBY1 140313Z 07004KT 29/16 A2983 RMK A01 T02940164  RH  045%=      5-min Rain = 0
KBY1 140314Z 08003KT 29/17 A2983 RMK A01 T02940165  RH  046%=      5-min Rain = 0
KBY1 140315Z 10003KT 29/17 A2983 RMK A01 T02930167  RH  046%=      5-min Rain = 0
KBY1 140316Z 10003KT 29/17 A2983 RMK A01 T02920170  RH  048%=      5-min Rain = 0
KBY1 140317Z 10003KT 29/17 A2983 RMK A01 T02920172  RH  048%=      5-min Rain = 0
KBY1 140318Z 09003KT 29/17 A2983 RMK A01 T02910170  RH  048%=      5-min Rain = 0
KBY1 140319Z 09003KT 29/17 A2983 RMK A01 T02910172  RH  049%=      5-min Rain = 0
KBY1 140320Z 08003KT 29/17 A2983 RMK A01 T02900173  RH  049%=      5-min Rain = 0
KBY1 140321Z 08003KT 29/17 A2983 RMK A01 T02890173  RH  050%=      5-min Rain = 0
KBY1 140322Z 09003KT 29/17 A2983 RMK A01 T02880174  RH  050%=      5-min Rain = 0
KBY1 140323Z 09003KT 29/18 A2983 RMK A01 T02860175  RH  051%=      5-min Rain = 0
KBY1 140324Z 10004KT 29/18 A2983 RMK A01 T02850176  RH  052%=      5-min Rain = 0
KBY1 140325Z 10004KT 28/18 A2983 RMK A01 T02840178  RH  052%=      5-min Rain = 0
KBY1 140326Z 10004KT 28/18 A2983 RMK A01 T02840178  RH  053%=      5-min Rain = 0
KBY1 140327Z 10004KT 28/18 A2983 RMK A01 T02840180  RH  053%=      5-min Rain = 0
KBY1 140328Z 10004KT 28/18 A2983 RMK A01 T02830179  RH  053%=      5-min Rain = 0
KBY1 140329Z 10003KT 28/18 A2983 RMK A01 T02820181  RH  054%=      5-min Rain = 0
KBY1 140330Z 10004KT 28/18 A2983 RMK A01 T02810183  RH  055%=      5-min Rain = 0
KBY1 140331Z 10003KT 28/19 A2983 RMK A01 T02790186  RH  057%=      5-min Rain = 0
KBY1 140332Z 11003KT 28/19 A2983 RMK A01 T02780188  RH  058%=      5-min Rain = 0
KBY1 140333Z 11003KT 28/19 A2983 RMK A01 T02780186  RH  057%=      5-min Rain = 0
KBY1 140334Z 10002KT 28/19 A2983 RMK A01 T02770185  RH  058%=      5-min Rain = 0
KBY1 140335Z 10002KT 28/18 A2984 RMK A01 T02760184  RH  057%=      5-min Rain = 0
KBY1 140336Z 09002KT 28/18 A2984 RMK A01 T02760184  RH  057%=      5-min Rain = 0
KBY1 140337Z 08002KT 28/19 A2984 RMK A01 T02760188  RH  059%=      5-min Rain = 0
KBY1 140338Z 07002KT 28/19 A2984 RMK A01 T02760187  RH  058%=      5-min Rain = 0
KBY1 140339Z 08002KT 28/19 A2983 RMK A01 T02760188  RH  059%=      5-min Rain = 0
KBY1 140340Z 09002KT 28/18 A2983 RMK A01 T02760184  RH  057%=      5-min Rain = 0
KBY1 140341Z 12001KT 28/19 A2984 RMK A01 T02760193  RH  061%=      5-min Rain = 0
KBY1 140342Z 14002KT 28/19 A2984 RMK A01 T02750188  RH  059%=      5-min Rain = 0
KBY1 140343Z 16002KT 28/20 A2984 RMK A01 T02750195  RH  062%=      5-min Rain = 0
KBY1 140344Z 17002KT 27/19 A2984 RMK A01 T02730188  RH  059%=      5-min Rain = 0
KBY1 140345Z 18002KT 27/19 A2984 RMK A01 T02730192  RH  061%=      5-min Rain = 0
KBY1 140346Z 19002KT 27/19 A2984 RMK A01 T02720194  RH  062%=      5-min Rain = 0
KBY1 140347Z 19002KT 27/19 A2984 RMK A01 T02720191  RH  061%=      5-min Rain = 0
KBY1 140348Z 18001KT 27/19 A2984 RMK A01 T02710191  RH  062%=      5-min Rain = 0
KBY1 140349Z 17001KT 27/19 A2984 RMK A01 T02710191  RH  061%=      5-min Rain = 0
KBY1 140350Z 20001KT 27/19 A2984 RMK A01 T02710190  RH  061%=      5-min Rain = 0
KBY1 140351Z 24002KT 27/19 A2984 RMK A01 T02710191  RH  062%=      5-min Rain = 0
KBY1 140352Z 25002KT 27/19 A2984 RMK A01 T02710188  RH  060%=      5-min Rain = 0
KBY1 140353Z 25003KT 27/19 A2984 RMK A01 T02720186  RH  060%=      5-min Rain = 0
KBY1 140354Z 26003KT 27/19 A2984 RMK A01 T02720188  RH  060%=      5-min Rain = 0
KBY1 140355Z 27003KT 27/19 A2984 RMK A01 T02720187  RH  060%=      5-min Rain = 0
KBY1 140356Z 27003KT 27/19 A2984 RMK A01 T02720185  RH  059%=      5-min Rain = 0
KBY1 140357Z 27003KT 27/18 A2984 RMK A01 T02730184  RH  058%=      5-min Rain = 0
KBY1 140358Z 26003KT 27/18 A2984 RMK A01 T02730184  RH  058%=      5-min Rain = 0
KBY1 140359Z 28003KT 27/18 A2984 RMK A01 T02740184  RH  058%=      5-min Rain = 0
KBY1 140400Z 27003KT 27/18 A2985 RMK A01 T02740182  RH  057%=      5-min Rain = 0
KBY1 140401Z 26002KT 27/18 A2985 RMK A01 T02740181  RH  057%=      5-min Rain = 0
KBY1 140402Z 25002KT 28/19 A2985 RMK A01 T02750185  RH  058%=      5-min Rain = 0
KBY1 140403Z 25000KT 28/18 A2985 RMK A01 T02750180  RH  056%=      5-min Rain = 0
KBY1 140404Z 23001KT 28/18 A2985 RMK A01 T02750184  RH  058%=      5-min Rain = 0
KBY1 140405Z 22001KT 28/19 A2985 RMK A01 T02750186  RH  058%=      5-min Rain = 0
KBY1 140406Z 18001KT 28/19 A2985 RMK A01 T02750186  RH  058%=      5-min Rain = 0
KBY1 140407Z 16001KT 28/19 A2985 RMK A01 T02760187  RH  058%=      5-min Rain = 0
KBY1 140408Z 15003KT 28/19 A2985 RMK A01 T02750187  RH  058%=      5-min Rain = 0
KBY1 140409Z 15003KT 28/18 A2985 RMK A01 T02750182  RH  057%=      5-min Rain = 0
KBY1 140410Z 14003KT 28/19 A2985 RMK A01 T02750188  RH  059%=      5-min Rain = 0
KBY1 140411Z 17003KT 27/18 A2985 RMK A01 T02740181  RH  057%=      5-min Rain = 0
KBY1 140412Z 19002KT 27/18 A2985 RMK A01 T02740182  RH  057%=      5-min Rain = 0
KBY1 140413Z 20002KT 27/18 A2985 RMK A01 T02730181  RH  057%=      5-min Rain = 0
KBY1 140414Z 22003KT 27/19 A2985 RMK A01 T02730186  RH  059%=      5-min Rain = 0
KBY1 140415Z 21003KT 27/19 A2985 RMK A01 T02720186  RH  059%=      5-min Rain = 0
KBY1 140416Z 20003KT 27/19 A2986 RMK A01 T02720185  RH  059%=      5-min Rain = 0
KBY1 140417Z 21002KT 27/19 A2986 RMK A01 T02720185  RH  059%=      5-min Rain = 0
KBY1 140418Z 18001KT 27/19 A2986 RMK A01 T02710187  RH  060%=      5-min Rain = 0
KBY1 140419Z 14001KT 27/18 A2985 RMK A01 T02710184  RH  059%=      5-min Rain = 0
KBY1 140420Z 12001KT 27/19 A2985 RMK A01 T02710186  RH  060%=      5-min Rain = 0
KBY1 140421Z 12000KT 27/19 A2986 RMK A01 T02710191  RH  062%=      5-min Rain = 0
KBY1 140422Z 29000KT 27/20 A2986 RMK A01 T02700196  RH  064%=      5-min Rain = 0
KBY1 140423Z 27001KT 27/19 A2986 RMK A01 T02700187  RH  061%=      5-min Rain = 0
KBY1 140424Z 28002KT 27/18 A2986 RMK A01 T02700175  RH  056%=      5-min Rain = 0
KBY1 140425Z 27003KT 27/18 A2986 RMK A01 T02710184  RH  059%=      5-min Rain = 0
KBY1 140426Z 26005KT 27/19 A2986 RMK A01 T02720185  RH  059%=      5-min Rain = 0
KBY1 140427Z 25004KT 27/19 A2986 RMK A01 T02710185  RH  059%=      5-min Rain = 0
KBY1 140428Z 23004KT 27/19 A2986 RMK A01 T02700185  RH  060%=      5-min Rain = 0
KBY1 140429Z 22003KT 27/18 A2986 RMK A01 T02700184  RH  059%=      5-min Rain = 0
KBY1 140430Z 20003KT 27/19 A2986 RMK A01 T02700186  RH  060%=      5-min Rain = 0
KBY1 140431Z 19003KT 27/19 A2986 RMK A01 T02690187  RH  061%=      5-min Rain = 0
KBY1 140432Z 19002KT 27/19 A2986 RMK A01 T02690193  RH  063%=      5-min Rain = 0
KBY1 140433Z 21003KT 27/20 A2986 RMK A01 T02680197  RH  065%=      5-min Rain = 0
KBY1 140434Z 23005KT 27/19 A2987 RMK A01 T02660192  RH  064%=      5-min Rain = 0
KBY1 140435Z 22005KT 26/19 A2987 RMK A01 T02640191  RH  064%=      5-min Rain = 0
KBY1 140436Z 20004KT 26/19 A2987 RMK A01 T02630191  RH  064%=      5-min Rain = 0
KBY1 140437Z 17002KT 26/19 A2987 RMK A01 T02620192  RH  065%=      5-min Rain = 0
KBY1 140438Z 17001KT 26/19 A2987 RMK A01 T02610193  RH  066%=      5-min Rain = 0
KBY1 140439Z 19001KT 26/20 A2987 RMK A01 T02610197  RH  068%=      5-min Rain = 0
KBY1 140440Z 16001KT 26/20 A2987 RMK A01 T02600197  RH  068%=      5-min Rain = 0
KBY1 140441Z 12002KT 26/20 A2987 RMK A01 T02600196  RH  068%=      5-min Rain = 0
KBY1 140442Z 06002KT 26/19 A2987 RMK A01 T02600188  RH  065%=      5-min Rain = 0
KBY1 140443Z 05003KT 26/19 A2987 RMK A01 T02610189  RH  065%=      5-min Rain = 0
KBY1 140444Z 07003KT 26/18 A2987 RMK A01 T02620180  RH  061%=      5-min Rain = 0
KBY1 140445Z 05004KT 27/18 A2987 RMK A01 T02650180  RH  060%=      5-min Rain = 0
KBY1 140446Z 04004KT 27/18 A2986 RMK A01 T02670184  RH  060%=      5-min Rain = 0
KBY1 140447Z 05005KT 27/18 A2986 RMK A01 T02680182  RH  059%=      5-min Rain = 0
KBY1 140448Z 06005KT 27/18 A2986 RMK A01 T02690182  RH  059%=      5-min Rain = 0
KBY1 140449Z 07005KT 27/18 A2986 RMK A01 T02690179  RH  058%=      5-min Rain = 0
KBY1 140450Z 07005KT 27/18 A2986 RMK A01 T02700176  RH  056%=      5-min Rain = 0
KBY1 140451Z 08005KT 27/18 A2986 RMK A01 T02710180  RH  057%=      5-min Rain = 0
KBY1 140452Z 08005KT 27/19 A2986 RMK A01 T02710186  RH  060%=      5-min Rain = 0
KBY1 140453Z 09005KT 27/18 A2986 RMK A01 T02700183  RH  059%=      5-min Rain = 0
KBY1 140454Z 08006KT 27/18 A2986 RMK A01 T02690184  RH  060%=      5-min Rain = 0
KBY1 140455Z 08006KT 27/18 A2986 RMK A01 T02690181  RH  058%=      5-min Rain = 0
KBY1 140456Z 07005KT 27/18 A2986 RMK A01 T02700176  RH  057%=      5-min Rain = 0
KBY1 140457Z 07005KT 27/17 A2986 RMK A01 T02710174  RH  055%=      5-min Rain = 0
KBY1 140458Z 09006KT 27/17 A2986 RMK A01 T02730172  RH  054%=      5-min Rain = 0
KBY1 140459Z 08006KT 28/17 A2986 RMK A01 T02750168  RH  052%=      5-min Rain = 0

Page generated in 0.0791 seconds.